<?xml version="1.0" encoding="UTF-8" standalone="no" ?>
<gpx xmlns="http://www.topografix.com/GPX/1/1" xmlns:xsi="http://www.w3.org/2001/XMLSchema-instance" xsi:schemaLocation="http://www.topografix.com/GPX/1/1 http://www.topografix.com/GPX/1/1/gpx.xsd" version="1.1" creator="VisuGPX - https://www.visugpx.com">
  <metadata>
    <name>5 chevaux en balade !</name>
    <desc><![CDATA[travail de groupe ! première heure Gringo est resté bien cool (étonnant!) mais la deuxième heure était plus \"fatigante\" !!]]></desc>
  </metadata>
  <trk>
    <name><![CDATA[Untitled]]></name>
    <trkseg>
      <trkpt lat="48.70862" lon="1.74636">
        <ele>175.80000305176</ele>
        <time>2013-01-06T12:51:23.000Z</time>
      </trkpt>
      <trkpt lat="48.70857" lon="1.74629">
        <ele>175.80000305176</ele>
        <time>2013-01-06T12:51:28.000Z</time>
      </trkpt>
      <trkpt lat="48.7085" lon="1.7462">
        <ele>175.80000305176</ele>
        <time>2013-01-06T12:51:35.000Z</time>
      </trkpt>
      <trkpt lat="48.70846" lon="1.74612">
        <ele>175.80000305176</ele>
        <time>2013-01-06T12:51:41.000Z</time>
      </trkpt>
      <trkpt lat="48.7084" lon="1.74605">
        <ele>175.80000305176</ele>
        <time>2013-01-06T12:51:47.000Z</time>
      </trkpt>
      <trkpt lat="48.70833" lon="1.74594">
        <ele>176</ele>
        <time>2013-01-06T12:51:55.000Z</time>
      </trkpt>
      <trkpt lat="48.70832" lon="1.74592">
        <ele>176</ele>
        <time>2013-01-06T12:51:56.000Z</time>
      </trkpt>
      <trkpt lat="48.70827" lon="1.74586">
        <ele>176</ele>
        <time>2013-01-06T12:52:02.000Z</time>
      </trkpt>
      <trkpt lat="48.7082" lon="1.74574">
        <ele>176</ele>
        <time>2013-01-06T12:52:11.000Z</time>
      </trkpt>
      <trkpt lat="48.70813" lon="1.74566">
        <ele>176.19999694824</ele>
        <time>2013-01-06T12:52:18.000Z</time>
      </trkpt>
      <trkpt lat="48.70811" lon="1.74564">
        <ele>176.19999694824</ele>
        <time>2013-01-06T12:52:20.000Z</time>
      </trkpt>
      <trkpt lat="48.70803" lon="1.74555">
        <ele>176.19999694824</ele>
        <time>2013-01-06T12:52:28.000Z</time>
      </trkpt>
      <trkpt lat="48.70799" lon="1.74551">
        <ele>176.39999389648</ele>
        <time>2013-01-06T12:52:32.000Z</time>
      </trkpt>
      <trkpt lat="48.70793" lon="1.74543">
        <ele>176.39999389648</ele>
        <time>2013-01-06T12:52:38.000Z</time>
      </trkpt>
      <trkpt lat="48.70792" lon="1.74542">
        <ele>176.39999389648</ele>
        <time>2013-01-06T12:52:39.000Z</time>
      </trkpt>
      <trkpt lat="48.70787" lon="1.74536">
        <ele>176.39999389648</ele>
        <time>2013-01-06T12:52:44.000Z</time>
      </trkpt>
      <trkpt lat="48.70784" lon="1.74533">
        <ele>176.39999389648</ele>
        <time>2013-01-06T12:52:47.000Z</time>
      </trkpt>
      <trkpt lat="48.70777" lon="1.74526">
        <ele>176.60000610352</ele>
        <time>2013-01-06T12:52:54.000Z</time>
      </trkpt>
      <trkpt lat="48.7077" lon="1.74519">
        <ele>176.60000610352</ele>
        <time>2013-01-06T12:53:00.000Z</time>
      </trkpt>
      <trkpt lat="48.70764" lon="1.74512">
        <ele>176.80000305176</ele>
        <time>2013-01-06T12:53:06.000Z</time>
      </trkpt>
      <trkpt lat="48.70756" lon="1.74503">
        <ele>176.80000305176</ele>
        <time>2013-01-06T12:53:14.000Z</time>
      </trkpt>
      <trkpt lat="48.7075" lon="1.74495">
        <ele>177</ele>
        <time>2013-01-06T12:53:20.000Z</time>
      </trkpt>
      <trkpt lat="48.70743" lon="1.74487">
        <ele>177.39999389648</ele>
        <time>2013-01-06T12:53:27.000Z</time>
      </trkpt>
      <trkpt lat="48.70735" lon="1.7448">
        <ele>177.60000610352</ele>
        <time>2013-01-06T12:53:35.000Z</time>
      </trkpt>
      <trkpt lat="48.70734" lon="1.74479">
        <ele>177.80000305176</ele>
        <time>2013-01-06T12:53:36.000Z</time>
      </trkpt>
      <trkpt lat="48.7073" lon="1.74472">
        <ele>178</ele>
        <time>2013-01-06T12:53:41.000Z</time>
      </trkpt>
      <trkpt lat="48.70728" lon="1.74466">
        <ele>178</ele>
        <time>2013-01-06T12:53:44.000Z</time>
      </trkpt>
      <trkpt lat="48.70728" lon="1.74459">
        <ele>178.19999694824</ele>
        <time>2013-01-06T12:53:47.000Z</time>
      </trkpt>
      <trkpt lat="48.70732" lon="1.74452">
        <ele>178.19999694824</ele>
        <time>2013-01-06T12:53:52.000Z</time>
      </trkpt>
      <trkpt lat="48.70734" lon="1.74451">
        <ele>178</ele>
        <time>2013-01-06T12:53:54.000Z</time>
      </trkpt>
      <trkpt lat="48.70739" lon="1.74445">
        <ele>178</ele>
        <time>2013-01-06T12:54:00.000Z</time>
      </trkpt>
      <trkpt lat="48.70742" lon="1.74443">
        <ele>177.80000305176</ele>
        <time>2013-01-06T12:54:02.000Z</time>
      </trkpt>
      <trkpt lat="48.70749" lon="1.7444">
        <ele>177.60000610352</ele>
        <time>2013-01-06T12:54:08.000Z</time>
      </trkpt>
      <trkpt lat="48.70754" lon="1.74436">
        <ele>177.60000610352</ele>
        <time>2013-01-06T12:54:13.000Z</time>
      </trkpt>
      <trkpt lat="48.70764" lon="1.74429">
        <ele>177.39999389648</ele>
        <time>2013-01-06T12:54:22.000Z</time>
      </trkpt>
      <trkpt lat="48.70771" lon="1.74426">
        <ele>177.39999389648</ele>
        <time>2013-01-06T12:54:27.000Z</time>
      </trkpt>
      <trkpt lat="48.70781" lon="1.74421">
        <ele>177.19999694824</ele>
        <time>2013-01-06T12:54:36.000Z</time>
      </trkpt>
      <trkpt lat="48.70791" lon="1.74414">
        <ele>177</ele>
        <time>2013-01-06T12:54:46.000Z</time>
      </trkpt>
      <trkpt lat="48.70798" lon="1.74408">
        <ele>176.80000305176</ele>
        <time>2013-01-06T12:54:54.000Z</time>
      </trkpt>
      <trkpt lat="48.70809" lon="1.74401">
        <ele>176.80000305176</ele>
        <time>2013-01-06T12:55:04.000Z</time>
      </trkpt>
      <trkpt lat="48.70817" lon="1.74394">
        <ele>176.60000610352</ele>
        <time>2013-01-06T12:55:11.000Z</time>
      </trkpt>
      <trkpt lat="48.70825" lon="1.74388">
        <ele>176.39999389648</ele>
        <time>2013-01-06T12:55:18.000Z</time>
      </trkpt>
      <trkpt lat="48.70831" lon="1.74383">
        <ele>176.39999389648</ele>
        <time>2013-01-06T12:55:24.000Z</time>
      </trkpt>
      <trkpt lat="48.70831" lon="1.74384">
        <ele>176.39999389648</ele>
        <time>2013-01-06T12:55:26.000Z</time>
      </trkpt>
      <trkpt lat="48.70836" lon="1.74376">
        <ele>176.39999389648</ele>
        <time>2013-01-06T12:55:47.000Z</time>
      </trkpt>
      <trkpt lat="48.70841" lon="1.7437">
        <ele>176.39999389648</ele>
        <time>2013-01-06T12:55:51.000Z</time>
      </trkpt>
      <trkpt lat="48.70844" lon="1.74365">
        <ele>176.39999389648</ele>
        <time>2013-01-06T12:55:55.000Z</time>
      </trkpt>
      <trkpt lat="48.70847" lon="1.74357">
        <ele>176.39999389648</ele>
        <time>2013-01-06T12:56:05.000Z</time>
      </trkpt>
      <trkpt lat="48.70851" lon="1.7435">
        <ele>176.39999389648</ele>
        <time>2013-01-06T12:56:10.000Z</time>
      </trkpt>
      <trkpt lat="48.70856" lon="1.74343">
        <ele>176.60000610352</ele>
        <time>2013-01-06T12:56:15.000Z</time>
      </trkpt>
      <trkpt lat="48.70859" lon="1.74337">
        <ele>176.60000610352</ele>
        <time>2013-01-06T12:56:20.000Z</time>
      </trkpt>
      <trkpt lat="48.70859" lon="1.74337">
        <ele>176.60000610352</ele>
        <time>2013-01-06T12:56:22.000Z</time>
      </trkpt>
      <trkpt lat="48.70864" lon="1.74332">
        <ele>176.60000610352</ele>
        <time>2013-01-06T12:56:41.000Z</time>
      </trkpt>
      <trkpt lat="48.70868" lon="1.74324">
        <ele>177</ele>
        <time>2013-01-06T12:56:45.000Z</time>
      </trkpt>
      <trkpt lat="48.70869" lon="1.74321">
        <ele>177</ele>
        <time>2013-01-06T12:56:47.000Z</time>
      </trkpt>
      <trkpt lat="48.70873" lon="1.74315">
        <ele>177.39999389648</ele>
        <time>2013-01-06T12:56:51.000Z</time>
      </trkpt>
      <trkpt lat="48.7088" lon="1.74305">
        <ele>177.80000305176</ele>
        <time>2013-01-06T12:56:59.000Z</time>
      </trkpt>
      <trkpt lat="48.70883" lon="1.74299">
        <ele>178</ele>
        <time>2013-01-06T12:57:02.000Z</time>
      </trkpt>
      <trkpt lat="48.70889" lon="1.74285">
        <ele>178.80000305176</ele>
        <time>2013-01-06T12:57:10.000Z</time>
      </trkpt>
      <trkpt lat="48.70893" lon="1.74279">
        <ele>179</ele>
        <time>2013-01-06T12:57:15.000Z</time>
      </trkpt>
      <trkpt lat="48.70896" lon="1.74277">
        <ele>179.19999694824</ele>
        <time>2013-01-06T12:57:20.000Z</time>
      </trkpt>
      <trkpt lat="48.70895" lon="1.74275">
        <ele>179.19999694824</ele>
        <time>2013-01-06T12:57:23.000Z</time>
      </trkpt>
      <trkpt lat="48.70897" lon="1.74272">
        <ele>179.39999389648</ele>
        <time>2013-01-06T12:57:25.000Z</time>
      </trkpt>
      <trkpt lat="48.70908" lon="1.74214">
        <ele>181.80000305176</ele>
        <time>2013-01-06T13:00:15.000Z</time>
      </trkpt>
      <trkpt lat="48.70911" lon="1.74206">
        <ele>182</ele>
        <time>2013-01-06T13:00:19.000Z</time>
      </trkpt>
      <trkpt lat="48.70915" lon="1.74199">
        <ele>182.19999694824</ele>
        <time>2013-01-06T13:00:23.000Z</time>
      </trkpt>
      <trkpt lat="48.70918" lon="1.74184">
        <ele>182.39999389648</ele>
        <time>2013-01-06T13:00:30.000Z</time>
      </trkpt>
      <trkpt lat="48.70922" lon="1.74173">
        <ele>182.60000610352</ele>
        <time>2013-01-06T13:00:35.000Z</time>
      </trkpt>
      <trkpt lat="48.70923" lon="1.74167">
        <ele>182.60000610352</ele>
        <time>2013-01-06T13:00:38.000Z</time>
      </trkpt>
      <trkpt lat="48.70926" lon="1.74158">
        <ele>182.60000610352</ele>
        <time>2013-01-06T13:00:43.000Z</time>
      </trkpt>
      <trkpt lat="48.70928" lon="1.74153">
        <ele>182.60000610352</ele>
        <time>2013-01-06T13:00:46.000Z</time>
      </trkpt>
      <trkpt lat="48.70931" lon="1.74141">
        <ele>182.60000610352</ele>
        <time>2013-01-06T13:00:52.000Z</time>
      </trkpt>
      <trkpt lat="48.70931" lon="1.74139">
        <ele>182.60000610352</ele>
        <time>2013-01-06T13:00:53.000Z</time>
      </trkpt>
      <trkpt lat="48.70932" lon="1.74135">
        <ele>182.39999389648</ele>
        <time>2013-01-06T13:00:55.000Z</time>
      </trkpt>
      <trkpt lat="48.70935" lon="1.74121">
        <ele>182.39999389648</ele>
        <time>2013-01-06T13:01:02.000Z</time>
      </trkpt>
      <trkpt lat="48.70937" lon="1.74106">
        <ele>182.60000610352</ele>
        <time>2013-01-06T13:01:08.000Z</time>
      </trkpt>
      <trkpt lat="48.7094" lon="1.7409">
        <ele>182.60000610352</ele>
        <time>2013-01-06T13:01:15.000Z</time>
      </trkpt>
      <trkpt lat="48.70942" lon="1.74078">
        <ele>182.60000610352</ele>
        <time>2013-01-06T13:01:21.000Z</time>
      </trkpt>
      <trkpt lat="48.70943" lon="1.74076">
        <ele>182.60000610352</ele>
        <time>2013-01-06T13:01:22.000Z</time>
      </trkpt>
      <trkpt lat="48.70945" lon="1.74065">
        <ele>182.60000610352</ele>
        <time>2013-01-06T13:01:27.000Z</time>
      </trkpt>
      <trkpt lat="48.70949" lon="1.74049">
        <ele>182.60000610352</ele>
        <time>2013-01-06T13:01:34.000Z</time>
      </trkpt>
      <trkpt lat="48.70949" lon="1.74047">
        <ele>182.60000610352</ele>
        <time>2013-01-06T13:01:35.000Z</time>
      </trkpt>
      <trkpt lat="48.7095" lon="1.74041">
        <ele>182.39999389648</ele>
        <time>2013-01-06T13:01:38.000Z</time>
      </trkpt>
      <trkpt lat="48.70951" lon="1.74026">
        <ele>182.39999389648</ele>
        <time>2013-01-06T13:01:44.000Z</time>
      </trkpt>
      <trkpt lat="48.70955" lon="1.74012">
        <ele>182.39999389648</ele>
        <time>2013-01-06T13:01:51.000Z</time>
      </trkpt>
      <trkpt lat="48.70958" lon="1.73996">
        <ele>182.39999389648</ele>
        <time>2013-01-06T13:01:58.000Z</time>
      </trkpt>
      <trkpt lat="48.70963" lon="1.7398">
        <ele>182.80000305176</ele>
        <time>2013-01-06T13:02:05.000Z</time>
      </trkpt>
      <trkpt lat="48.70966" lon="1.73966">
        <ele>183</ele>
        <time>2013-01-06T13:02:11.000Z</time>
      </trkpt>
      <trkpt lat="48.70969" lon="1.73957">
        <ele>183.19999694824</ele>
        <time>2013-01-06T13:02:15.000Z</time>
      </trkpt>
      <trkpt lat="48.70969" lon="1.7395">
        <ele>183.39999389648</ele>
        <time>2013-01-06T13:02:18.000Z</time>
      </trkpt>
      <trkpt lat="48.70974" lon="1.73936">
        <ele>183.80000305176</ele>
        <time>2013-01-06T13:02:25.000Z</time>
      </trkpt>
      <trkpt lat="48.70978" lon="1.7392">
        <ele>184.19999694824</ele>
        <time>2013-01-06T13:02:33.000Z</time>
      </trkpt>
      <trkpt lat="48.70982" lon="1.73915">
        <ele>184.39999389648</ele>
        <time>2013-01-06T13:02:37.000Z</time>
      </trkpt>
      <trkpt lat="48.70986" lon="1.73902">
        <ele>184.19999694824</ele>
        <time>2013-01-06T13:02:43.000Z</time>
      </trkpt>
      <trkpt lat="48.70987" lon="1.73899">
        <ele>184.19999694824</ele>
        <time>2013-01-06T13:02:45.000Z</time>
      </trkpt>
      <trkpt lat="48.70991" lon="1.73883">
        <ele>183.80000305176</ele>
        <time>2013-01-06T13:02:53.000Z</time>
      </trkpt>
      <trkpt lat="48.70991" lon="1.73879">
        <ele>183.80000305176</ele>
        <time>2013-01-06T13:02:55.000Z</time>
      </trkpt>
      <trkpt lat="48.70995" lon="1.73864">
        <ele>183.39999389648</ele>
        <time>2013-01-06T13:03:03.000Z</time>
      </trkpt>
      <trkpt lat="48.70998" lon="1.7385">
        <ele>183.19999694824</ele>
        <time>2013-01-06T13:03:10.000Z</time>
      </trkpt>
      <trkpt lat="48.71001" lon="1.7384">
        <ele>183</ele>
        <time>2013-01-06T13:03:15.000Z</time>
      </trkpt>
      <trkpt lat="48.71006" lon="1.73827">
        <ele>182.60000610352</ele>
        <time>2013-01-06T13:03:22.000Z</time>
      </trkpt>
      <trkpt lat="48.71008" lon="1.7382">
        <ele>182.60000610352</ele>
        <time>2013-01-06T13:03:25.000Z</time>
      </trkpt>
      <trkpt lat="48.71013" lon="1.73809">
        <ele>182.19999694824</ele>
        <time>2013-01-06T13:03:32.000Z</time>
      </trkpt>
      <trkpt lat="48.7102" lon="1.738">
        <ele>182.19999694824</ele>
        <time>2013-01-06T13:03:39.000Z</time>
      </trkpt>
      <trkpt lat="48.71021" lon="1.73799">
        <ele>182.19999694824</ele>
        <time>2013-01-06T13:03:40.000Z</time>
      </trkpt>
      <trkpt lat="48.71022" lon="1.73797">
        <ele>182.19999694824</ele>
        <time>2013-01-06T13:03:42.000Z</time>
      </trkpt>
      <trkpt lat="48.71028" lon="1.73789">
        <ele>182</ele>
        <time>2013-01-06T13:03:48.000Z</time>
      </trkpt>
      <trkpt lat="48.71032" lon="1.73783">
        <ele>182</ele>
        <time>2013-01-06T13:03:53.000Z</time>
      </trkpt>
      <trkpt lat="48.71035" lon="1.73781">
        <ele>182</ele>
        <time>2013-01-06T13:03:55.000Z</time>
      </trkpt>
      <trkpt lat="48.71045" lon="1.73769">
        <ele>182</ele>
        <time>2013-01-06T13:04:03.000Z</time>
      </trkpt>
      <trkpt lat="48.71047" lon="1.73767">
        <ele>182</ele>
        <time>2013-01-06T13:04:05.000Z</time>
      </trkpt>
      <trkpt lat="48.71058" lon="1.73755">
        <ele>182.19999694824</ele>
        <time>2013-01-06T13:04:13.000Z</time>
      </trkpt>
      <trkpt lat="48.71064" lon="1.73749">
        <ele>182.39999389648</ele>
        <time>2013-01-06T13:04:18.000Z</time>
      </trkpt>
      <trkpt lat="48.71075" lon="1.7374">
        <ele>182.19999694824</ele>
        <time>2013-01-06T13:04:25.000Z</time>
      </trkpt>
      <trkpt lat="48.71084" lon="1.73734">
        <ele>182.19999694824</ele>
        <time>2013-01-06T13:04:31.000Z</time>
      </trkpt>
      <trkpt lat="48.71092" lon="1.73725">
        <ele>181.80000305176</ele>
        <time>2013-01-06T13:04:38.000Z</time>
      </trkpt>
      <trkpt lat="48.71096" lon="1.73719">
        <ele>181.80000305176</ele>
        <time>2013-01-06T13:04:42.000Z</time>
      </trkpt>
      <trkpt lat="48.71097" lon="1.73716">
        <ele>181.60000610352</ele>
        <time>2013-01-06T13:04:43.000Z</time>
      </trkpt>
      <trkpt lat="48.71101" lon="1.73712">
        <ele>181.60000610352</ele>
        <time>2013-01-06T13:04:46.000Z</time>
      </trkpt>
      <trkpt lat="48.71109" lon="1.73704">
        <ele>181.60000610352</ele>
        <time>2013-01-06T13:04:53.000Z</time>
      </trkpt>
      <trkpt lat="48.71117" lon="1.73697">
        <ele>181.60000610352</ele>
        <time>2013-01-06T13:04:59.000Z</time>
      </trkpt>
      <trkpt lat="48.71122" lon="1.73693">
        <ele>181.60000610352</ele>
        <time>2013-01-06T13:05:02.000Z</time>
      </trkpt>
      <trkpt lat="48.7113" lon="1.73682">
        <ele>181.60000610352</ele>
        <time>2013-01-06T13:05:10.000Z</time>
      </trkpt>
      <trkpt lat="48.7114" lon="1.7367">
        <ele>181.60000610352</ele>
        <time>2013-01-06T13:05:18.000Z</time>
      </trkpt>
      <trkpt lat="48.71149" lon="1.7366">
        <ele>181.80000305176</ele>
        <time>2013-01-06T13:05:25.000Z</time>
      </trkpt>
      <trkpt lat="48.71158" lon="1.73651">
        <ele>182</ele>
        <time>2013-01-06T13:05:32.000Z</time>
      </trkpt>
      <trkpt lat="48.71159" lon="1.7365">
        <ele>182</ele>
        <time>2013-01-06T13:05:33.000Z</time>
      </trkpt>
      <trkpt lat="48.71166" lon="1.73642">
        <ele>182</ele>
        <time>2013-01-06T13:05:39.000Z</time>
      </trkpt>
      <trkpt lat="48.71176" lon="1.73633">
        <ele>181.80000305176</ele>
        <time>2013-01-06T13:05:47.000Z</time>
      </trkpt>
      <trkpt lat="48.71183" lon="1.73626">
        <ele>182</ele>
        <time>2013-01-06T13:05:52.000Z</time>
      </trkpt>
      <trkpt lat="48.7119" lon="1.73618">
        <ele>182</ele>
        <time>2013-01-06T13:05:58.000Z</time>
      </trkpt>
      <trkpt lat="48.71196" lon="1.73608">
        <ele>182</ele>
        <time>2013-01-06T13:06:04.000Z</time>
      </trkpt>
      <trkpt lat="48.71203" lon="1.73604">
        <ele>182.19999694824</ele>
        <time>2013-01-06T13:06:09.000Z</time>
      </trkpt>
      <trkpt lat="48.71211" lon="1.73608">
        <ele>182.60000610352</ele>
        <time>2013-01-06T13:06:15.000Z</time>
      </trkpt>
      <trkpt lat="48.7122" lon="1.73612">
        <ele>183</ele>
        <time>2013-01-06T13:06:21.000Z</time>
      </trkpt>
      <trkpt lat="48.71222" lon="1.73612">
        <ele>183.19999694824</ele>
        <time>2013-01-06T13:06:23.000Z</time>
      </trkpt>
      <trkpt lat="48.71231" lon="1.73613">
        <ele>183.39999389648</ele>
        <time>2013-01-06T13:06:29.000Z</time>
      </trkpt>
      <trkpt lat="48.71242" lon="1.73613">
        <ele>183.80000305176</ele>
        <time>2013-01-06T13:06:36.000Z</time>
      </trkpt>
      <trkpt lat="48.71249" lon="1.73614">
        <ele>184.19999694824</ele>
        <time>2013-01-06T13:06:42.000Z</time>
      </trkpt>
      <trkpt lat="48.71256" lon="1.73613">
        <ele>183.19999694824</ele>
        <time>2013-01-06T13:06:48.000Z</time>
      </trkpt>
      <trkpt lat="48.71267" lon="1.73609">
        <ele>181.39999389648</ele>
        <time>2013-01-06T13:06:56.000Z</time>
      </trkpt>
      <trkpt lat="48.71276" lon="1.73602">
        <ele>180</ele>
        <time>2013-01-06T13:07:02.000Z</time>
      </trkpt>
      <trkpt lat="48.71281" lon="1.73595">
        <ele>179.39999389648</ele>
        <time>2013-01-06T13:07:08.000Z</time>
      </trkpt>
      <trkpt lat="48.71288" lon="1.73585">
        <ele>178.60000610352</ele>
        <time>2013-01-06T13:07:15.000Z</time>
      </trkpt>
      <trkpt lat="48.71291" lon="1.73579">
        <ele>178.19999694824</ele>
        <time>2013-01-06T13:07:19.000Z</time>
      </trkpt>
      <trkpt lat="48.71298" lon="1.73569">
        <ele>177.19999694824</ele>
        <time>2013-01-06T13:07:25.000Z</time>
      </trkpt>
      <trkpt lat="48.713" lon="1.73565">
        <ele>177</ele>
        <time>2013-01-06T13:07:28.000Z</time>
      </trkpt>
      <trkpt lat="48.71302" lon="1.73562">
        <ele>176.80000305176</ele>
        <time>2013-01-06T13:07:32.000Z</time>
      </trkpt>
      <trkpt lat="48.71306" lon="1.73557">
        <ele>176.39999389648</ele>
        <time>2013-01-06T13:07:37.000Z</time>
      </trkpt>
      <trkpt lat="48.71313" lon="1.73544">
        <ele>176.19999694824</ele>
        <time>2013-01-06T13:07:45.000Z</time>
      </trkpt>
      <trkpt lat="48.71314" lon="1.73542">
        <ele>176</ele>
        <time>2013-01-06T13:07:47.000Z</time>
      </trkpt>
      <trkpt lat="48.71315" lon="1.7354">
        <ele>176</ele>
        <time>2013-01-06T13:07:49.000Z</time>
      </trkpt>
      <trkpt lat="48.71322" lon="1.73534">
        <ele>175.60000610352</ele>
        <time>2013-01-06T13:07:57.000Z</time>
      </trkpt>
      <trkpt lat="48.71331" lon="1.73531">
        <ele>175</ele>
        <time>2013-01-06T13:08:03.000Z</time>
      </trkpt>
      <trkpt lat="48.71341" lon="1.73537">
        <ele>173.19999694824</ele>
        <time>2013-01-06T13:08:11.000Z</time>
      </trkpt>
      <trkpt lat="48.7135" lon="1.73544">
        <ele>171.80000305176</ele>
        <time>2013-01-06T13:08:18.000Z</time>
      </trkpt>
      <trkpt lat="48.71354" lon="1.73547">
        <ele>171</ele>
        <time>2013-01-06T13:08:21.000Z</time>
      </trkpt>
      <trkpt lat="48.71358" lon="1.73553">
        <ele>170.19999694824</ele>
        <time>2013-01-06T13:08:25.000Z</time>
      </trkpt>
      <trkpt lat="48.71368" lon="1.73563">
        <ele>168.39999389648</ele>
        <time>2013-01-06T13:08:33.000Z</time>
      </trkpt>
      <trkpt lat="48.71374" lon="1.73569">
        <ele>167.39999389648</ele>
        <time>2013-01-06T13:08:38.000Z</time>
      </trkpt>
      <trkpt lat="48.71382" lon="1.73577">
        <ele>166</ele>
        <time>2013-01-06T13:08:45.000Z</time>
      </trkpt>
      <trkpt lat="48.71392" lon="1.73582">
        <ele>164.60000610352</ele>
        <time>2013-01-06T13:08:52.000Z</time>
      </trkpt>
      <trkpt lat="48.71393" lon="1.73582">
        <ele>164.60000610352</ele>
        <time>2013-01-06T13:08:53.000Z</time>
      </trkpt>
      <trkpt lat="48.71406" lon="1.73578">
        <ele>163.19999694824</ele>
        <time>2013-01-06T13:09:01.000Z</time>
      </trkpt>
      <trkpt lat="48.71415" lon="1.73575">
        <ele>162.39999389648</ele>
        <time>2013-01-06T13:09:09.000Z</time>
      </trkpt>
      <trkpt lat="48.71424" lon="1.73574">
        <ele>161.60000610352</ele>
        <time>2013-01-06T13:09:14.000Z</time>
      </trkpt>
      <trkpt lat="48.71433" lon="1.73573">
        <ele>160.80000305176</ele>
        <time>2013-01-06T13:09:20.000Z</time>
      </trkpt>
      <trkpt lat="48.71444" lon="1.7357">
        <ele>159.80000305176</ele>
        <time>2013-01-06T13:09:27.000Z</time>
      </trkpt>
      <trkpt lat="48.71454" lon="1.73567">
        <ele>159</ele>
        <time>2013-01-06T13:09:33.000Z</time>
      </trkpt>
      <trkpt lat="48.71459" lon="1.73565">
        <ele>158.39999389648</ele>
        <time>2013-01-06T13:09:38.000Z</time>
      </trkpt>
      <trkpt lat="48.71467" lon="1.73563">
        <ele>157.60000610352</ele>
        <time>2013-01-06T13:09:44.000Z</time>
      </trkpt>
      <trkpt lat="48.71479" lon="1.73561">
        <ele>156.39999389648</ele>
        <time>2013-01-06T13:09:52.000Z</time>
      </trkpt>
      <trkpt lat="48.71488" lon="1.73558">
        <ele>155.39999389648</ele>
        <time>2013-01-06T13:09:59.000Z</time>
      </trkpt>
      <trkpt lat="48.71499" lon="1.73555">
        <ele>154</ele>
        <time>2013-01-06T13:10:07.000Z</time>
      </trkpt>
      <trkpt lat="48.71507" lon="1.73554">
        <ele>153</ele>
        <time>2013-01-06T13:10:13.000Z</time>
      </trkpt>
      <trkpt lat="48.71515" lon="1.73552">
        <ele>152</ele>
        <time>2013-01-06T13:10:19.000Z</time>
      </trkpt>
      <trkpt lat="48.71526" lon="1.73552">
        <ele>151</ele>
        <time>2013-01-06T13:10:26.000Z</time>
      </trkpt>
      <trkpt lat="48.7154" lon="1.73549">
        <ele>149.19999694824</ele>
        <time>2013-01-06T13:10:35.000Z</time>
      </trkpt>
      <trkpt lat="48.71542" lon="1.73548">
        <ele>149</ele>
        <time>2013-01-06T13:10:37.000Z</time>
      </trkpt>
      <trkpt lat="48.71547" lon="1.73547">
        <ele>148.39999389648</ele>
        <time>2013-01-06T13:10:42.000Z</time>
      </trkpt>
      <trkpt lat="48.71554" lon="1.73545">
        <ele>147.60000610352</ele>
        <time>2013-01-06T13:10:48.000Z</time>
      </trkpt>
      <trkpt lat="48.71556" lon="1.73545">
        <ele>147.39999389648</ele>
        <time>2013-01-06T13:10:49.000Z</time>
      </trkpt>
      <trkpt lat="48.71562" lon="1.73541">
        <ele>146.60000610352</ele>
        <time>2013-01-06T13:10:54.000Z</time>
      </trkpt>
      <trkpt lat="48.71574" lon="1.73537">
        <ele>145.39999389648</ele>
        <time>2013-01-06T13:11:02.000Z</time>
      </trkpt>
      <trkpt lat="48.71587" lon="1.73534">
        <ele>144.19999694824</ele>
        <time>2013-01-06T13:11:10.000Z</time>
      </trkpt>
      <trkpt lat="48.71595" lon="1.73532">
        <ele>143.60000610352</ele>
        <time>2013-01-06T13:11:15.000Z</time>
      </trkpt>
      <trkpt lat="48.71606" lon="1.73532">
        <ele>143</ele>
        <time>2013-01-06T13:11:22.000Z</time>
      </trkpt>
      <trkpt lat="48.71619" lon="1.73528">
        <ele>142.39999389648</ele>
        <time>2013-01-06T13:11:30.000Z</time>
      </trkpt>
      <trkpt lat="48.71632" lon="1.73523">
        <ele>141.60000610352</ele>
        <time>2013-01-06T13:11:39.000Z</time>
      </trkpt>
      <trkpt lat="48.71649" lon="1.73519">
        <ele>140.80000305176</ele>
        <time>2013-01-06T13:11:50.000Z</time>
      </trkpt>
      <trkpt lat="48.71657" lon="1.73517">
        <ele>140.39999389648</ele>
        <time>2013-01-06T13:11:57.000Z</time>
      </trkpt>
      <trkpt lat="48.71668" lon="1.73515">
        <ele>139.80000305176</ele>
        <time>2013-01-06T13:12:05.000Z</time>
      </trkpt>
      <trkpt lat="48.71675" lon="1.73514">
        <ele>139.60000610352</ele>
        <time>2013-01-06T13:12:10.000Z</time>
      </trkpt>
      <trkpt lat="48.71687" lon="1.7351">
        <ele>139.19999694824</ele>
        <time>2013-01-06T13:12:20.000Z</time>
      </trkpt>
      <trkpt lat="48.71698" lon="1.73507">
        <ele>138.80000305176</ele>
        <time>2013-01-06T13:12:28.000Z</time>
      </trkpt>
      <trkpt lat="48.71707" lon="1.73506">
        <ele>138.60000610352</ele>
        <time>2013-01-06T13:12:35.000Z</time>
      </trkpt>
      <trkpt lat="48.71719" lon="1.73503">
        <ele>138</ele>
        <time>2013-01-06T13:12:43.000Z</time>
      </trkpt>
      <trkpt lat="48.71734" lon="1.735">
        <ele>137.39999389648</ele>
        <time>2013-01-06T13:12:52.000Z</time>
      </trkpt>
      <trkpt lat="48.71746" lon="1.73498">
        <ele>137</ele>
        <time>2013-01-06T13:12:59.000Z</time>
      </trkpt>
      <trkpt lat="48.71752" lon="1.73491">
        <ele>136.80000305176</ele>
        <time>2013-01-06T13:13:05.000Z</time>
      </trkpt>
      <trkpt lat="48.71755" lon="1.7348">
        <ele>136.80000305176</ele>
        <time>2013-01-06T13:13:12.000Z</time>
      </trkpt>
      <trkpt lat="48.71754" lon="1.73468">
        <ele>136.80000305176</ele>
        <time>2013-01-06T13:13:18.000Z</time>
      </trkpt>
      <trkpt lat="48.71753" lon="1.73466">
        <ele>136.80000305176</ele>
        <time>2013-01-06T13:13:19.000Z</time>
      </trkpt>
      <trkpt lat="48.71751" lon="1.73453">
        <ele>136.80000305176</ele>
        <time>2013-01-06T13:13:26.000Z</time>
      </trkpt>
      <trkpt lat="48.7175" lon="1.73451">
        <ele>136.80000305176</ele>
        <time>2013-01-06T13:13:27.000Z</time>
      </trkpt>
      <trkpt lat="48.71746" lon="1.73432">
        <ele>137</ele>
        <time>2013-01-06T13:13:35.000Z</time>
      </trkpt>
      <trkpt lat="48.71744" lon="1.73416">
        <ele>137.19999694824</ele>
        <time>2013-01-06T13:13:42.000Z</time>
      </trkpt>
      <trkpt lat="48.7174" lon="1.734">
        <ele>136.80000305176</ele>
        <time>2013-01-06T13:13:50.000Z</time>
      </trkpt>
      <trkpt lat="48.71737" lon="1.7339">
        <ele>136.80000305176</ele>
        <time>2013-01-06T13:13:55.000Z</time>
      </trkpt>
      <trkpt lat="48.71733" lon="1.73373">
        <ele>136.39999389648</ele>
        <time>2013-01-06T13:14:03.000Z</time>
      </trkpt>
      <trkpt lat="48.71729" lon="1.73363">
        <ele>136.39999389648</ele>
        <time>2013-01-06T13:14:08.000Z</time>
      </trkpt>
      <trkpt lat="48.71727" lon="1.73354">
        <ele>136.19999694824</ele>
        <time>2013-01-06T13:14:12.000Z</time>
      </trkpt>
      <trkpt lat="48.71725" lon="1.73343">
        <ele>136</ele>
        <time>2013-01-06T13:14:18.000Z</time>
      </trkpt>
      <trkpt lat="48.71721" lon="1.73333">
        <ele>136</ele>
        <time>2013-01-06T13:14:23.000Z</time>
      </trkpt>
      <trkpt lat="48.71714" lon="1.73314">
        <ele>136</ele>
        <time>2013-01-06T13:14:32.000Z</time>
      </trkpt>
      <trkpt lat="48.71712" lon="1.733">
        <ele>136</ele>
        <time>2013-01-06T13:14:38.000Z</time>
      </trkpt>
      <trkpt lat="48.71711" lon="1.73293">
        <ele>136</ele>
        <time>2013-01-06T13:14:42.000Z</time>
      </trkpt>
      <trkpt lat="48.7171" lon="1.73275">
        <ele>136</ele>
        <time>2013-01-06T13:14:51.000Z</time>
      </trkpt>
      <trkpt lat="48.71708" lon="1.73257">
        <ele>136</ele>
        <time>2013-01-06T13:15:00.000Z</time>
      </trkpt>
      <trkpt lat="48.71706" lon="1.73247">
        <ele>136</ele>
        <time>2013-01-06T13:15:04.000Z</time>
      </trkpt>
      <trkpt lat="48.71704" lon="1.73235">
        <ele>136</ele>
        <time>2013-01-06T13:15:10.000Z</time>
      </trkpt>
      <trkpt lat="48.71703" lon="1.73227">
        <ele>136</ele>
        <time>2013-01-06T13:15:15.000Z</time>
      </trkpt>
      <trkpt lat="48.71702" lon="1.73215">
        <ele>136</ele>
        <time>2013-01-06T13:15:21.000Z</time>
      </trkpt>
      <trkpt lat="48.71699" lon="1.73201">
        <ele>136</ele>
        <time>2013-01-06T13:15:28.000Z</time>
      </trkpt>
      <trkpt lat="48.71697" lon="1.73188">
        <ele>136</ele>
        <time>2013-01-06T13:15:34.000Z</time>
      </trkpt>
      <trkpt lat="48.71694" lon="1.73177">
        <ele>136</ele>
        <time>2013-01-06T13:15:40.000Z</time>
      </trkpt>
      <trkpt lat="48.71693" lon="1.73166">
        <ele>136</ele>
        <time>2013-01-06T13:15:46.000Z</time>
      </trkpt>
      <trkpt lat="48.71691" lon="1.73154">
        <ele>136.19999694824</ele>
        <time>2013-01-06T13:15:52.000Z</time>
      </trkpt>
      <trkpt lat="48.71687" lon="1.73135">
        <ele>136.80000305176</ele>
        <time>2013-01-06T13:16:00.000Z</time>
      </trkpt>
      <trkpt lat="48.71685" lon="1.73118">
        <ele>137.19999694824</ele>
        <time>2013-01-06T13:16:08.000Z</time>
      </trkpt>
      <trkpt lat="48.71685" lon="1.73116">
        <ele>137.39999389648</ele>
        <time>2013-01-06T13:16:09.000Z</time>
      </trkpt>
      <trkpt lat="48.71683" lon="1.73105">
        <ele>137.60000610352</ele>
        <time>2013-01-06T13:16:15.000Z</time>
      </trkpt>
      <trkpt lat="48.71682" lon="1.73093">
        <ele>138</ele>
        <time>2013-01-06T13:16:21.000Z</time>
      </trkpt>
      <trkpt lat="48.71681" lon="1.73078">
        <ele>138.19999694824</ele>
        <time>2013-01-06T13:16:28.000Z</time>
      </trkpt>
      <trkpt lat="48.7168" lon="1.73063">
        <ele>138</ele>
        <time>2013-01-06T13:16:35.000Z</time>
      </trkpt>
      <trkpt lat="48.71679" lon="1.73048">
        <ele>137.80000305176</ele>
        <time>2013-01-06T13:16:42.000Z</time>
      </trkpt>
      <trkpt lat="48.71678" lon="1.73033">
        <ele>137.60000610352</ele>
        <time>2013-01-06T13:16:49.000Z</time>
      </trkpt>
      <trkpt lat="48.71677" lon="1.73021">
        <ele>137.60000610352</ele>
        <time>2013-01-06T13:16:55.000Z</time>
      </trkpt>
      <trkpt lat="48.71672" lon="1.73003">
        <ele>137.60000610352</ele>
        <time>2013-01-06T13:17:04.000Z</time>
      </trkpt>
      <trkpt lat="48.71669" lon="1.72994">
        <ele>137.80000305176</ele>
        <time>2013-01-06T13:17:10.000Z</time>
      </trkpt>
      <trkpt lat="48.71666" lon="1.72985">
        <ele>137.80000305176</ele>
        <time>2013-01-06T13:17:15.000Z</time>
      </trkpt>
      <trkpt lat="48.71661" lon="1.72975">
        <ele>137.80000305176</ele>
        <time>2013-01-06T13:17:21.000Z</time>
      </trkpt>
      <trkpt lat="48.71657" lon="1.7297">
        <ele>138</ele>
        <time>2013-01-06T13:17:25.000Z</time>
      </trkpt>
      <trkpt lat="48.71655" lon="1.7296">
        <ele>138</ele>
        <time>2013-01-06T13:17:30.000Z</time>
      </trkpt>
      <trkpt lat="48.71655" lon="1.72955">
        <ele>138</ele>
        <time>2013-01-06T13:17:33.000Z</time>
      </trkpt>
      <trkpt lat="48.71652" lon="1.72949">
        <ele>138</ele>
        <time>2013-01-06T13:17:39.000Z</time>
      </trkpt>
      <trkpt lat="48.71647" lon="1.72943">
        <ele>138.19999694824</ele>
        <time>2013-01-06T13:17:43.000Z</time>
      </trkpt>
      <trkpt lat="48.71644" lon="1.72934">
        <ele>138.19999694824</ele>
        <time>2013-01-06T13:17:48.000Z</time>
      </trkpt>
      <trkpt lat="48.71643" lon="1.72932">
        <ele>138.19999694824</ele>
        <time>2013-01-06T13:17:49.000Z</time>
      </trkpt>
      <trkpt lat="48.71641" lon="1.72927">
        <ele>138.19999694824</ele>
        <time>2013-01-06T13:17:53.000Z</time>
      </trkpt>
      <trkpt lat="48.71638" lon="1.72919">
        <ele>138.39999389648</ele>
        <time>2013-01-06T13:17:59.000Z</time>
      </trkpt>
      <trkpt lat="48.71633" lon="1.72907">
        <ele>138.39999389648</ele>
        <time>2013-01-06T13:18:06.000Z</time>
      </trkpt>
      <trkpt lat="48.71628" lon="1.72894">
        <ele>138.60000610352</ele>
        <time>2013-01-06T13:18:12.000Z</time>
      </trkpt>
      <trkpt lat="48.7162" lon="1.72883">
        <ele>139</ele>
        <time>2013-01-06T13:18:19.000Z</time>
      </trkpt>
      <trkpt lat="48.71615" lon="1.72872">
        <ele>139</ele>
        <time>2013-01-06T13:18:25.000Z</time>
      </trkpt>
      <trkpt lat="48.7161" lon="1.72861">
        <ele>139.19999694824</ele>
        <time>2013-01-06T13:18:31.000Z</time>
      </trkpt>
      <trkpt lat="48.716" lon="1.72842">
        <ele>139.39999389648</ele>
        <time>2013-01-06T13:18:36.000Z</time>
      </trkpt>
      <trkpt lat="48.7159" lon="1.72819">
        <ele>139.80000305176</ele>
        <time>2013-01-06T13:18:41.000Z</time>
      </trkpt>
      <trkpt lat="48.71576" lon="1.72794">
        <ele>140.80000305176</ele>
        <time>2013-01-06T13:18:47.000Z</time>
      </trkpt>
      <trkpt lat="48.71567" lon="1.72772">
        <ele>141.60000610352</ele>
        <time>2013-01-06T13:18:53.000Z</time>
      </trkpt>
      <trkpt lat="48.71559" lon="1.72751">
        <ele>142.39999389648</ele>
        <time>2013-01-06T13:18:58.000Z</time>
      </trkpt>
      <trkpt lat="48.71541" lon="1.72712">
        <ele>142.80000305176</ele>
        <time>2013-01-06T13:19:06.000Z</time>
      </trkpt>
      <trkpt lat="48.71532" lon="1.72686">
        <ele>142.80000305176</ele>
        <time>2013-01-06T13:19:11.000Z</time>
      </trkpt>
      <trkpt lat="48.71525" lon="1.72666">
        <ele>142.60000610352</ele>
        <time>2013-01-06T13:19:15.000Z</time>
      </trkpt>
      <trkpt lat="48.71516" lon="1.72635">
        <ele>142.39999389648</ele>
        <time>2013-01-06T13:19:21.000Z</time>
      </trkpt>
      <trkpt lat="48.71509" lon="1.72607">
        <ele>142</ele>
        <time>2013-01-06T13:19:27.000Z</time>
      </trkpt>
      <trkpt lat="48.71506" lon="1.72588">
        <ele>141.80000305176</ele>
        <time>2013-01-06T13:19:31.000Z</time>
      </trkpt>
      <trkpt lat="48.71501" lon="1.72556">
        <ele>141.39999389648</ele>
        <time>2013-01-06T13:19:37.000Z</time>
      </trkpt>
      <trkpt lat="48.71496" lon="1.72516">
        <ele>141.39999389648</ele>
        <time>2013-01-06T13:19:44.000Z</time>
      </trkpt>
      <trkpt lat="48.71493" lon="1.72482">
        <ele>140.80000305176</ele>
        <time>2013-01-06T13:19:50.000Z</time>
      </trkpt>
      <trkpt lat="48.71491" lon="1.72454">
        <ele>140.39999389648</ele>
        <time>2013-01-06T13:19:55.000Z</time>
      </trkpt>
      <trkpt lat="48.71489" lon="1.72424">
        <ele>139.80000305176</ele>
        <time>2013-01-06T13:20:01.000Z</time>
      </trkpt>
      <trkpt lat="48.71486" lon="1.72386">
        <ele>139.39999389648</ele>
        <time>2013-01-06T13:20:08.000Z</time>
      </trkpt>
      <trkpt lat="48.71488" lon="1.72357">
        <ele>139</ele>
        <time>2013-01-06T13:20:13.000Z</time>
      </trkpt>
      <trkpt lat="48.7149" lon="1.72339">
        <ele>138.60000610352</ele>
        <time>2013-01-06T13:20:17.000Z</time>
      </trkpt>
      <trkpt lat="48.71488" lon="1.72293">
        <ele>138.19999694824</ele>
        <time>2013-01-06T13:20:24.000Z</time>
      </trkpt>
      <trkpt lat="48.71485" lon="1.72268">
        <ele>138.19999694824</ele>
        <time>2013-01-06T13:20:28.000Z</time>
      </trkpt>
      <trkpt lat="48.71481" lon="1.72253">
        <ele>138.19999694824</ele>
        <time>2013-01-06T13:20:31.000Z</time>
      </trkpt>
      <trkpt lat="48.71474" lon="1.72233">
        <ele>139.19999694824</ele>
        <time>2013-01-06T13:20:37.000Z</time>
      </trkpt>
      <trkpt lat="48.71468" lon="1.72221">
        <ele>140</ele>
        <time>2013-01-06T13:20:43.000Z</time>
      </trkpt>
      <trkpt lat="48.71464" lon="1.7221">
        <ele>140.60000610352</ele>
        <time>2013-01-06T13:20:49.000Z</time>
      </trkpt>
      <trkpt lat="48.71461" lon="1.72201">
        <ele>141</ele>
        <time>2013-01-06T13:20:53.000Z</time>
      </trkpt>
      <trkpt lat="48.71457" lon="1.72195">
        <ele>141.60000610352</ele>
        <time>2013-01-06T13:20:57.000Z</time>
      </trkpt>
      <trkpt lat="48.7145" lon="1.7219">
        <ele>142.60000610352</ele>
        <time>2013-01-06T13:21:02.000Z</time>
      </trkpt>
      <trkpt lat="48.71445" lon="1.72183">
        <ele>143.19999694824</ele>
        <time>2013-01-06T13:21:06.000Z</time>
      </trkpt>
      <trkpt lat="48.71438" lon="1.72172">
        <ele>144.39999389648</ele>
        <time>2013-01-06T13:21:13.000Z</time>
      </trkpt>
      <trkpt lat="48.71431" lon="1.72156">
        <ele>145</ele>
        <time>2013-01-06T13:21:21.000Z</time>
      </trkpt>
      <trkpt lat="48.71429" lon="1.72143">
        <ele>144.60000610352</ele>
        <time>2013-01-06T13:21:27.000Z</time>
      </trkpt>
      <trkpt lat="48.71429" lon="1.72133">
        <ele>144.19999694824</ele>
        <time>2013-01-06T13:21:32.000Z</time>
      </trkpt>
      <trkpt lat="48.71426" lon="1.7212">
        <ele>144</ele>
        <time>2013-01-06T13:21:38.000Z</time>
      </trkpt>
      <trkpt lat="48.71424" lon="1.72115">
        <ele>143.80000305176</ele>
        <time>2013-01-06T13:21:40.000Z</time>
      </trkpt>
      <trkpt lat="48.71419" lon="1.72103">
        <ele>143.60000610352</ele>
        <time>2013-01-06T13:21:47.000Z</time>
      </trkpt>
      <trkpt lat="48.71417" lon="1.721">
        <ele>143.80000305176</ele>
        <time>2013-01-06T13:21:49.000Z</time>
      </trkpt>
      <trkpt lat="48.71412" lon="1.72092">
        <ele>144</ele>
        <time>2013-01-06T13:21:56.000Z</time>
      </trkpt>
      <trkpt lat="48.71415" lon="1.72085">
        <ele>143.19999694824</ele>
        <time>2013-01-06T13:22:01.000Z</time>
      </trkpt>
      <trkpt lat="48.71414" lon="1.72081">
        <ele>143.19999694824</ele>
        <time>2013-01-06T13:22:02.000Z</time>
      </trkpt>
      <trkpt lat="48.71409" lon="1.72063">
        <ele>144</ele>
        <time>2013-01-06T13:22:10.000Z</time>
      </trkpt>
      <trkpt lat="48.714" lon="1.72047">
        <ele>145</ele>
        <time>2013-01-06T13:22:18.000Z</time>
      </trkpt>
      <trkpt lat="48.71391" lon="1.72034">
        <ele>145.60000610352</ele>
        <time>2013-01-06T13:22:26.000Z</time>
      </trkpt>
      <trkpt lat="48.71384" lon="1.72025">
        <ele>145.80000305176</ele>
        <time>2013-01-06T13:22:32.000Z</time>
      </trkpt>
      <trkpt lat="48.71377" lon="1.72017">
        <ele>146</ele>
        <time>2013-01-06T13:22:38.000Z</time>
      </trkpt>
      <trkpt lat="48.71366" lon="1.72009">
        <ele>146.19999694824</ele>
        <time>2013-01-06T13:22:46.000Z</time>
      </trkpt>
      <trkpt lat="48.71357" lon="1.72004">
        <ele>146.19999694824</ele>
        <time>2013-01-06T13:22:52.000Z</time>
      </trkpt>
      <trkpt lat="48.7135" lon="1.71997">
        <ele>146.39999389648</ele>
        <time>2013-01-06T13:22:58.000Z</time>
      </trkpt>
      <trkpt lat="48.71341" lon="1.71988">
        <ele>147</ele>
        <time>2013-01-06T13:23:05.000Z</time>
      </trkpt>
      <trkpt lat="48.71335" lon="1.71979">
        <ele>147.39999389648</ele>
        <time>2013-01-06T13:23:11.000Z</time>
      </trkpt>
      <trkpt lat="48.71326" lon="1.7197">
        <ele>148.39999389648</ele>
        <time>2013-01-06T13:23:19.000Z</time>
      </trkpt>
      <trkpt lat="48.71318" lon="1.71963">
        <ele>149.39999389648</ele>
        <time>2013-01-06T13:23:26.000Z</time>
      </trkpt>
      <trkpt lat="48.71314" lon="1.71948">
        <ele>150.19999694824</ele>
        <time>2013-01-06T13:23:34.000Z</time>
      </trkpt>
      <trkpt lat="48.71315" lon="1.71939">
        <ele>150.39999389648</ele>
        <time>2013-01-06T13:23:39.000Z</time>
      </trkpt>
      <trkpt lat="48.71315" lon="1.71927">
        <ele>150.60000610352</ele>
        <time>2013-01-06T13:23:45.000Z</time>
      </trkpt>
      <trkpt lat="48.71315" lon="1.71921">
        <ele>150.80000305176</ele>
        <time>2013-01-06T13:23:48.000Z</time>
      </trkpt>
      <trkpt lat="48.71317" lon="1.7191">
        <ele>150.80000305176</ele>
        <time>2013-01-06T13:23:54.000Z</time>
      </trkpt>
      <trkpt lat="48.71318" lon="1.71901">
        <ele>150.80000305176</ele>
        <time>2013-01-06T13:23:59.000Z</time>
      </trkpt>
      <trkpt lat="48.71318" lon="1.71894">
        <ele>150.80000305176</ele>
        <time>2013-01-06T13:24:03.000Z</time>
      </trkpt>
      <trkpt lat="48.71319" lon="1.71887">
        <ele>150.80000305176</ele>
        <time>2013-01-06T13:24:07.000Z</time>
      </trkpt>
      <trkpt lat="48.71323" lon="1.71872">
        <ele>150.60000610352</ele>
        <time>2013-01-06T13:24:14.000Z</time>
      </trkpt>
      <trkpt lat="48.71324" lon="1.71868">
        <ele>150.60000610352</ele>
        <time>2013-01-06T13:24:16.000Z</time>
      </trkpt>
      <trkpt lat="48.71324" lon="1.71865">
        <ele>150.60000610352</ele>
        <time>2013-01-06T13:24:18.000Z</time>
      </trkpt>
      <trkpt lat="48.71327" lon="1.71856">
        <ele>150.39999389648</ele>
        <time>2013-01-06T13:24:23.000Z</time>
      </trkpt>
      <trkpt lat="48.71328" lon="1.71846">
        <ele>150.39999389648</ele>
        <time>2013-01-06T13:24:27.000Z</time>
      </trkpt>
      <trkpt lat="48.71329" lon="1.71832">
        <ele>150.39999389648</ele>
        <time>2013-01-06T13:24:32.000Z</time>
      </trkpt>
      <trkpt lat="48.71328" lon="1.71822">
        <ele>150</ele>
        <time>2013-01-06T13:24:37.000Z</time>
      </trkpt>
      <trkpt lat="48.71328" lon="1.71817">
        <ele>150</ele>
        <time>2013-01-06T13:24:39.000Z</time>
      </trkpt>
      <trkpt lat="48.71327" lon="1.71799">
        <ele>149.39999389648</ele>
        <time>2013-01-06T13:24:46.000Z</time>
      </trkpt>
      <trkpt lat="48.71325" lon="1.71782">
        <ele>148.80000305176</ele>
        <time>2013-01-06T13:24:54.000Z</time>
      </trkpt>
      <trkpt lat="48.71322" lon="1.7176">
        <ele>148.19999694824</ele>
        <time>2013-01-06T13:25:04.000Z</time>
      </trkpt>
      <trkpt lat="48.71321" lon="1.71741">
        <ele>147.80000305176</ele>
        <time>2013-01-06T13:25:12.000Z</time>
      </trkpt>
      <trkpt lat="48.7132" lon="1.71725">
        <ele>147.60000610352</ele>
        <time>2013-01-06T13:25:19.000Z</time>
      </trkpt>
      <trkpt lat="48.7132" lon="1.71712">
        <ele>147.39999389648</ele>
        <time>2013-01-06T13:25:26.000Z</time>
      </trkpt>
      <trkpt lat="48.71321" lon="1.71697">
        <ele>147</ele>
        <time>2013-01-06T13:25:33.000Z</time>
      </trkpt>
      <trkpt lat="48.71322" lon="1.71684">
        <ele>146.80000305176</ele>
        <time>2013-01-06T13:25:39.000Z</time>
      </trkpt>
      <trkpt lat="48.71321" lon="1.71667">
        <ele>146.60000610352</ele>
        <time>2013-01-06T13:25:47.000Z</time>
      </trkpt>
      <trkpt lat="48.7132" lon="1.7165">
        <ele>146</ele>
        <time>2013-01-06T13:25:54.000Z</time>
      </trkpt>
      <trkpt lat="48.71318" lon="1.71634">
        <ele>145.60000610352</ele>
        <time>2013-01-06T13:26:02.000Z</time>
      </trkpt>
      <trkpt lat="48.71317" lon="1.71619">
        <ele>145.19999694824</ele>
        <time>2013-01-06T13:26:09.000Z</time>
      </trkpt>
      <trkpt lat="48.71317" lon="1.71605">
        <ele>144.60000610352</ele>
        <time>2013-01-06T13:26:15.000Z</time>
      </trkpt>
      <trkpt lat="48.71317" lon="1.71595">
        <ele>144.19999694824</ele>
        <time>2013-01-06T13:26:20.000Z</time>
      </trkpt>
      <trkpt lat="48.71318" lon="1.7158">
        <ele>143.80000305176</ele>
        <time>2013-01-06T13:26:27.000Z</time>
      </trkpt>
      <trkpt lat="48.71318" lon="1.71563">
        <ele>143.60000610352</ele>
        <time>2013-01-06T13:26:34.000Z</time>
      </trkpt>
      <trkpt lat="48.71317" lon="1.71542">
        <ele>143.39999389648</ele>
        <time>2013-01-06T13:26:43.000Z</time>
      </trkpt>
      <trkpt lat="48.71316" lon="1.71533">
        <ele>143.19999694824</ele>
        <time>2013-01-06T13:26:47.000Z</time>
      </trkpt>
      <trkpt lat="48.71316" lon="1.71517">
        <ele>143</ele>
        <time>2013-01-06T13:26:54.000Z</time>
      </trkpt>
      <trkpt lat="48.71316" lon="1.71507">
        <ele>142.80000305176</ele>
        <time>2013-01-06T13:26:59.000Z</time>
      </trkpt>
      <trkpt lat="48.71315" lon="1.71501">
        <ele>142.80000305176</ele>
        <time>2013-01-06T13:27:04.000Z</time>
      </trkpt>
      <trkpt lat="48.71316" lon="1.71491">
        <ele>142.60000610352</ele>
        <time>2013-01-06T13:27:12.000Z</time>
      </trkpt>
      <trkpt lat="48.71316" lon="1.71477">
        <ele>142.39999389648</ele>
        <time>2013-01-06T13:27:18.000Z</time>
      </trkpt>
      <trkpt lat="48.71313" lon="1.71465">
        <ele>142.60000610352</ele>
        <time>2013-01-06T13:27:24.000Z</time>
      </trkpt>
      <trkpt lat="48.71307" lon="1.7145">
        <ele>142.80000305176</ele>
        <time>2013-01-06T13:27:31.000Z</time>
      </trkpt>
      <trkpt lat="48.71303" lon="1.71438">
        <ele>142.80000305176</ele>
        <time>2013-01-06T13:27:37.000Z</time>
      </trkpt>
      <trkpt lat="48.71303" lon="1.7144">
        <ele>142.80000305176</ele>
        <time>2013-01-06T13:27:41.000Z</time>
      </trkpt>
      <trkpt lat="48.71303" lon="1.7144">
        <ele>142.80000305176</ele>
        <time>2013-01-06T13:27:42.000Z</time>
      </trkpt>
      <trkpt lat="48.71303" lon="1.71443">
        <ele>143</ele>
        <time>2013-01-06T13:27:49.000Z</time>
      </trkpt>
      <trkpt lat="48.71303" lon="1.71445">
        <ele>143</ele>
        <time>2013-01-06T13:27:50.000Z</time>
      </trkpt>
      <trkpt lat="48.71301" lon="1.71456">
        <ele>143.19999694824</ele>
        <time>2013-01-06T13:27:55.000Z</time>
      </trkpt>
      <trkpt lat="48.71302" lon="1.71453">
        <ele>143</ele>
        <time>2013-01-06T13:28:03.000Z</time>
      </trkpt>
      <trkpt lat="48.71302" lon="1.71452">
        <ele>143</ele>
        <time>2013-01-06T13:28:05.000Z</time>
      </trkpt>
      <trkpt lat="48.71302" lon="1.71441">
        <ele>143</ele>
        <time>2013-01-06T13:28:30.000Z</time>
      </trkpt>
      <trkpt lat="48.71299" lon="1.71425">
        <ele>143</ele>
        <time>2013-01-06T13:28:36.000Z</time>
      </trkpt>
      <trkpt lat="48.71298" lon="1.71405">
        <ele>142.80000305176</ele>
        <time>2013-01-06T13:28:43.000Z</time>
      </trkpt>
      <trkpt lat="48.71297" lon="1.71395">
        <ele>142.80000305176</ele>
        <time>2013-01-06T13:28:47.000Z</time>
      </trkpt>
      <trkpt lat="48.71296" lon="1.71387">
        <ele>142.60000610352</ele>
        <time>2013-01-06T13:28:51.000Z</time>
      </trkpt>
      <trkpt lat="48.71294" lon="1.71375">
        <ele>142.60000610352</ele>
        <time>2013-01-06T13:28:57.000Z</time>
      </trkpt>
      <trkpt lat="48.71292" lon="1.71356">
        <ele>142.39999389648</ele>
        <time>2013-01-06T13:29:05.000Z</time>
      </trkpt>
      <trkpt lat="48.71289" lon="1.71341">
        <ele>142.19999694824</ele>
        <time>2013-01-06T13:29:12.000Z</time>
      </trkpt>
      <trkpt lat="48.71286" lon="1.71319">
        <ele>142</ele>
        <time>2013-01-06T13:29:22.000Z</time>
      </trkpt>
      <trkpt lat="48.71285" lon="1.71316">
        <ele>142</ele>
        <time>2013-01-06T13:29:24.000Z</time>
      </trkpt>
      <trkpt lat="48.71283" lon="1.71311">
        <ele>142</ele>
        <time>2013-01-06T13:29:31.000Z</time>
      </trkpt>
      <trkpt lat="48.71282" lon="1.71302">
        <ele>142</ele>
        <time>2013-01-06T13:29:59.000Z</time>
      </trkpt>
      <trkpt lat="48.71279" lon="1.71287">
        <ele>141.80000305176</ele>
        <time>2013-01-06T13:30:04.000Z</time>
      </trkpt>
      <trkpt lat="48.71279" lon="1.71283">
        <ele>141.80000305176</ele>
        <time>2013-01-06T13:30:06.000Z</time>
      </trkpt>
      <trkpt lat="48.71275" lon="1.7127">
        <ele>141.60000610352</ele>
        <time>2013-01-06T13:30:13.000Z</time>
      </trkpt>
      <trkpt lat="48.71275" lon="1.71267">
        <ele>141.60000610352</ele>
        <time>2013-01-06T13:30:14.000Z</time>
      </trkpt>
      <trkpt lat="48.71273" lon="1.71249">
        <ele>141.39999389648</ele>
        <time>2013-01-06T13:30:22.000Z</time>
      </trkpt>
      <trkpt lat="48.71273" lon="1.71235">
        <ele>141.39999389648</ele>
        <time>2013-01-06T13:30:28.000Z</time>
      </trkpt>
      <trkpt lat="48.71274" lon="1.71212">
        <ele>141.19999694824</ele>
        <time>2013-01-06T13:30:38.000Z</time>
      </trkpt>
      <trkpt lat="48.71276" lon="1.71198">
        <ele>141</ele>
        <time>2013-01-06T13:30:45.000Z</time>
      </trkpt>
      <trkpt lat="48.71274" lon="1.71183">
        <ele>141</ele>
        <time>2013-01-06T13:30:52.000Z</time>
      </trkpt>
      <trkpt lat="48.71272" lon="1.71166">
        <ele>141.19999694824</ele>
        <time>2013-01-06T13:31:00.000Z</time>
      </trkpt>
      <trkpt lat="48.71269" lon="1.71146">
        <ele>141.19999694824</ele>
        <time>2013-01-06T13:31:09.000Z</time>
      </trkpt>
      <trkpt lat="48.71264" lon="1.7113">
        <ele>141.39999389648</ele>
        <time>2013-01-06T13:31:16.000Z</time>
      </trkpt>
      <trkpt lat="48.71257" lon="1.71111">
        <ele>141.60000610352</ele>
        <time>2013-01-06T13:31:23.000Z</time>
      </trkpt>
      <trkpt lat="48.71252" lon="1.71099">
        <ele>141.80000305176</ele>
        <time>2013-01-06T13:31:29.000Z</time>
      </trkpt>
      <trkpt lat="48.71247" lon="1.71088">
        <ele>142.19999694824</ele>
        <time>2013-01-06T13:31:35.000Z</time>
      </trkpt>
      <trkpt lat="48.71243" lon="1.71077">
        <ele>142.60000610352</ele>
        <time>2013-01-06T13:31:40.000Z</time>
      </trkpt>
      <trkpt lat="48.71241" lon="1.7107">
        <ele>142.80000305176</ele>
        <time>2013-01-06T13:31:44.000Z</time>
      </trkpt>
      <trkpt lat="48.71233" lon="1.71053">
        <ele>143.60000610352</ele>
        <time>2013-01-06T13:31:53.000Z</time>
      </trkpt>
      <trkpt lat="48.71226" lon="1.71041">
        <ele>144.19999694824</ele>
        <time>2013-01-06T13:32:00.000Z</time>
      </trkpt>
      <trkpt lat="48.71222" lon="1.71031">
        <ele>144.60000610352</ele>
        <time>2013-01-06T13:32:05.000Z</time>
      </trkpt>
      <trkpt lat="48.71218" lon="1.71019">
        <ele>144.80000305176</ele>
        <time>2013-01-06T13:32:10.000Z</time>
      </trkpt>
      <trkpt lat="48.71215" lon="1.71007">
        <ele>145</ele>
        <time>2013-01-06T13:32:15.000Z</time>
      </trkpt>
      <trkpt lat="48.71213" lon="1.70986">
        <ele>145.39999389648</ele>
        <time>2013-01-06T13:32:24.000Z</time>
      </trkpt>
      <trkpt lat="48.71211" lon="1.7097">
        <ele>145.80000305176</ele>
        <time>2013-01-06T13:32:32.000Z</time>
      </trkpt>
      <trkpt lat="48.71209" lon="1.70956">
        <ele>146.19999694824</ele>
        <time>2013-01-06T13:32:39.000Z</time>
      </trkpt>
      <trkpt lat="48.7121" lon="1.70949">
        <ele>146.19999694824</ele>
        <time>2013-01-06T13:32:43.000Z</time>
      </trkpt>
      <trkpt lat="48.71211" lon="1.70933">
        <ele>146.39999389648</ele>
        <time>2013-01-06T13:32:49.000Z</time>
      </trkpt>
      <trkpt lat="48.71211" lon="1.70913">
        <ele>146.80000305176</ele>
        <time>2013-01-06T13:32:55.000Z</time>
      </trkpt>
      <trkpt lat="48.71211" lon="1.70905">
        <ele>147.19999694824</ele>
        <time>2013-01-06T13:32:59.000Z</time>
      </trkpt>
      <trkpt lat="48.71211" lon="1.70893">
        <ele>147.80000305176</ele>
        <time>2013-01-06T13:33:04.000Z</time>
      </trkpt>
      <trkpt lat="48.71211" lon="1.70882">
        <ele>148.19999694824</ele>
        <time>2013-01-06T13:33:10.000Z</time>
      </trkpt>
      <trkpt lat="48.71215" lon="1.70861">
        <ele>149</ele>
        <time>2013-01-06T13:33:18.000Z</time>
      </trkpt>
      <trkpt lat="48.71217" lon="1.70849">
        <ele>149.39999389648</ele>
        <time>2013-01-06T13:33:24.000Z</time>
      </trkpt>
      <trkpt lat="48.7122" lon="1.70836">
        <ele>149.60000610352</ele>
        <time>2013-01-06T13:33:29.000Z</time>
      </trkpt>
      <trkpt lat="48.71221" lon="1.70831">
        <ele>149.60000610352</ele>
        <time>2013-01-06T13:33:31.000Z</time>
      </trkpt>
      <trkpt lat="48.71222" lon="1.70818">
        <ele>149.39999389648</ele>
        <time>2013-01-06T13:33:37.000Z</time>
      </trkpt>
      <trkpt lat="48.7122" lon="1.70801">
        <ele>149.39999389648</ele>
        <time>2013-01-06T13:33:42.000Z</time>
      </trkpt>
      <trkpt lat="48.71219" lon="1.7079">
        <ele>149.39999389648</ele>
        <time>2013-01-06T13:33:47.000Z</time>
      </trkpt>
      <trkpt lat="48.71219" lon="1.70775">
        <ele>149.39999389648</ele>
        <time>2013-01-06T13:33:54.000Z</time>
      </trkpt>
      <trkpt lat="48.7122" lon="1.70768">
        <ele>149.19999694824</ele>
        <time>2013-01-06T13:33:57.000Z</time>
      </trkpt>
      <trkpt lat="48.7122" lon="1.70753">
        <ele>149.19999694824</ele>
        <time>2013-01-06T13:34:04.000Z</time>
      </trkpt>
      <trkpt lat="48.7122" lon="1.70735">
        <ele>149</ele>
        <time>2013-01-06T13:34:11.000Z</time>
      </trkpt>
      <trkpt lat="48.7122" lon="1.70718">
        <ele>149</ele>
        <time>2013-01-06T13:34:19.000Z</time>
      </trkpt>
      <trkpt lat="48.71221" lon="1.70714">
        <ele>149</ele>
        <time>2013-01-06T13:34:21.000Z</time>
      </trkpt>
      <trkpt lat="48.71222" lon="1.70695">
        <ele>149</ele>
        <time>2013-01-06T13:34:28.000Z</time>
      </trkpt>
      <trkpt lat="48.71222" lon="1.70681">
        <ele>149</ele>
        <time>2013-01-06T13:34:34.000Z</time>
      </trkpt>
      <trkpt lat="48.71222" lon="1.70656">
        <ele>148.80000305176</ele>
        <time>2013-01-06T13:34:45.000Z</time>
      </trkpt>
      <trkpt lat="48.71221" lon="1.7064">
        <ele>148.80000305176</ele>
        <time>2013-01-06T13:34:52.000Z</time>
      </trkpt>
      <trkpt lat="48.71218" lon="1.70618">
        <ele>148.80000305176</ele>
        <time>2013-01-06T13:35:01.000Z</time>
      </trkpt>
      <trkpt lat="48.71216" lon="1.70605">
        <ele>148.80000305176</ele>
        <time>2013-01-06T13:35:07.000Z</time>
      </trkpt>
      <trkpt lat="48.71211" lon="1.70588">
        <ele>149.19999694824</ele>
        <time>2013-01-06T13:35:15.000Z</time>
      </trkpt>
      <trkpt lat="48.71211" lon="1.70586">
        <ele>149.19999694824</ele>
        <time>2013-01-06T13:35:16.000Z</time>
      </trkpt>
      <trkpt lat="48.71205" lon="1.70567">
        <ele>149</ele>
        <time>2013-01-06T13:35:25.000Z</time>
      </trkpt>
      <trkpt lat="48.71199" lon="1.70548">
        <ele>148.80000305176</ele>
        <time>2013-01-06T13:35:34.000Z</time>
      </trkpt>
      <trkpt lat="48.71194" lon="1.70525">
        <ele>148.60000610352</ele>
        <time>2013-01-06T13:35:45.000Z</time>
      </trkpt>
      <trkpt lat="48.71192" lon="1.70505">
        <ele>148</ele>
        <time>2013-01-06T13:35:55.000Z</time>
      </trkpt>
      <trkpt lat="48.71191" lon="1.70497">
        <ele>147.80000305176</ele>
        <time>2013-01-06T13:36:00.000Z</time>
      </trkpt>
      <trkpt lat="48.71188" lon="1.70487">
        <ele>147.39999389648</ele>
        <time>2013-01-06T13:36:05.000Z</time>
      </trkpt>
      <trkpt lat="48.71179" lon="1.70466">
        <ele>147.19999694824</ele>
        <time>2013-01-06T13:36:16.000Z</time>
      </trkpt>
      <trkpt lat="48.71173" lon="1.70451">
        <ele>146.60000610352</ele>
        <time>2013-01-06T13:36:23.000Z</time>
      </trkpt>
      <trkpt lat="48.71166" lon="1.70435">
        <ele>146</ele>
        <time>2013-01-06T13:36:32.000Z</time>
      </trkpt>
      <trkpt lat="48.71161" lon="1.70418">
        <ele>144.80000305176</ele>
        <time>2013-01-06T13:36:41.000Z</time>
      </trkpt>
      <trkpt lat="48.71159" lon="1.70412">
        <ele>144.80000305176</ele>
        <time>2013-01-06T13:36:47.000Z</time>
      </trkpt>
      <trkpt lat="48.7116" lon="1.70412">
        <ele>144.80000305176</ele>
        <time>2013-01-06T13:36:48.000Z</time>
      </trkpt>
      <trkpt lat="48.71159" lon="1.70406">
        <ele>144.80000305176</ele>
        <time>2013-01-06T13:36:52.000Z</time>
      </trkpt>
      <trkpt lat="48.71159" lon="1.70404">
        <ele>144.80000305176</ele>
        <time>2013-01-06T13:36:53.000Z</time>
      </trkpt>
      <trkpt lat="48.71158" lon="1.70387">
        <ele>145</ele>
        <time>2013-01-06T13:36:58.000Z</time>
      </trkpt>
      <trkpt lat="48.71158" lon="1.7037">
        <ele>145</ele>
        <time>2013-01-06T13:37:02.000Z</time>
      </trkpt>
      <trkpt lat="48.71158" lon="1.70356">
        <ele>145.19999694824</ele>
        <time>2013-01-06T13:37:07.000Z</time>
      </trkpt>
      <trkpt lat="48.71159" lon="1.70345">
        <ele>145.19999694824</ele>
        <time>2013-01-06T13:37:12.000Z</time>
      </trkpt>
      <trkpt lat="48.7116" lon="1.70338">
        <ele>145.19999694824</ele>
        <time>2013-01-06T13:37:16.000Z</time>
      </trkpt>
      <trkpt lat="48.7116" lon="1.70329">
        <ele>145.39999389648</ele>
        <time>2013-01-06T13:37:20.000Z</time>
      </trkpt>
      <trkpt lat="48.71162" lon="1.70311">
        <ele>145.60000610352</ele>
        <time>2013-01-06T13:37:27.000Z</time>
      </trkpt>
      <trkpt lat="48.71164" lon="1.70304">
        <ele>145.80000305176</ele>
        <time>2013-01-06T13:37:31.000Z</time>
      </trkpt>
      <trkpt lat="48.71166" lon="1.703">
        <ele>145.80000305176</ele>
        <time>2013-01-06T13:37:33.000Z</time>
      </trkpt>
      <trkpt lat="48.71168" lon="1.7029">
        <ele>145.80000305176</ele>
        <time>2013-01-06T13:37:39.000Z</time>
      </trkpt>
      <trkpt lat="48.71173" lon="1.70276">
        <ele>145.80000305176</ele>
        <time>2013-01-06T13:37:46.000Z</time>
      </trkpt>
      <trkpt lat="48.71174" lon="1.70273">
        <ele>145.60000610352</ele>
        <time>2013-01-06T13:37:47.000Z</time>
      </trkpt>
      <trkpt lat="48.71177" lon="1.70255">
        <ele>145.80000305176</ele>
        <time>2013-01-06T13:37:53.000Z</time>
      </trkpt>
      <trkpt lat="48.71177" lon="1.70253">
        <ele>145.80000305176</ele>
        <time>2013-01-06T13:37:54.000Z</time>
      </trkpt>
      <trkpt lat="48.71179" lon="1.7025">
        <ele>145.60000610352</ele>
        <time>2013-01-06T13:37:56.000Z</time>
      </trkpt>
      <trkpt lat="48.7118" lon="1.70241">
        <ele>145.39999389648</ele>
        <time>2013-01-06T13:38:01.000Z</time>
      </trkpt>
      <trkpt lat="48.71185" lon="1.70231">
        <ele>145</ele>
        <time>2013-01-06T13:38:06.000Z</time>
      </trkpt>
      <trkpt lat="48.71186" lon="1.70221">
        <ele>145</ele>
        <time>2013-01-06T13:38:10.000Z</time>
      </trkpt>
      <trkpt lat="48.71189" lon="1.70204">
        <ele>144.60000610352</ele>
        <time>2013-01-06T13:38:18.000Z</time>
      </trkpt>
      <trkpt lat="48.71195" lon="1.70184">
        <ele>144.19999694824</ele>
        <time>2013-01-06T13:38:25.000Z</time>
      </trkpt>
      <trkpt lat="48.71196" lon="1.70179">
        <ele>144</ele>
        <time>2013-01-06T13:38:27.000Z</time>
      </trkpt>
      <trkpt lat="48.71196" lon="1.70166">
        <ele>144</ele>
        <time>2013-01-06T13:38:32.000Z</time>
      </trkpt>
      <trkpt lat="48.71196" lon="1.70164">
        <ele>144.19999694824</ele>
        <time>2013-01-06T13:38:33.000Z</time>
      </trkpt>
      <trkpt lat="48.71201" lon="1.70142">
        <ele>144.39999389648</ele>
        <time>2013-01-06T13:38:43.000Z</time>
      </trkpt>
      <trkpt lat="48.71206" lon="1.70123">
        <ele>144.39999389648</ele>
        <time>2013-01-06T13:38:51.000Z</time>
      </trkpt>
      <trkpt lat="48.7121" lon="1.70106">
        <ele>144.60000610352</ele>
        <time>2013-01-06T13:38:57.000Z</time>
      </trkpt>
      <trkpt lat="48.71213" lon="1.70092">
        <ele>144.80000305176</ele>
        <time>2013-01-06T13:39:03.000Z</time>
      </trkpt>
      <trkpt lat="48.71215" lon="1.70078">
        <ele>145</ele>
        <time>2013-01-06T13:39:10.000Z</time>
      </trkpt>
      <trkpt lat="48.71218" lon="1.70064">
        <ele>145.19999694824</ele>
        <time>2013-01-06T13:39:17.000Z</time>
      </trkpt>
      <trkpt lat="48.71218" lon="1.70062">
        <ele>145.19999694824</ele>
        <time>2013-01-06T13:39:18.000Z</time>
      </trkpt>
      <trkpt lat="48.71219" lon="1.70049">
        <ele>145.39999389648</ele>
        <time>2013-01-06T13:39:24.000Z</time>
      </trkpt>
      <trkpt lat="48.71222" lon="1.7003">
        <ele>145.80000305176</ele>
        <time>2013-01-06T13:39:33.000Z</time>
      </trkpt>
      <trkpt lat="48.71225" lon="1.70012">
        <ele>146</ele>
        <time>2013-01-06T13:39:42.000Z</time>
      </trkpt>
      <trkpt lat="48.71227" lon="1.70001">
        <ele>146.19999694824</ele>
        <time>2013-01-06T13:39:48.000Z</time>
      </trkpt>
      <trkpt lat="48.71228" lon="1.69989">
        <ele>146.19999694824</ele>
        <time>2013-01-06T13:39:54.000Z</time>
      </trkpt>
      <trkpt lat="48.7123" lon="1.69977">
        <ele>146.19999694824</ele>
        <time>2013-01-06T13:40:00.000Z</time>
      </trkpt>
      <trkpt lat="48.7123" lon="1.69961">
        <ele>146.39999389648</ele>
        <time>2013-01-06T13:40:06.000Z</time>
      </trkpt>
      <trkpt lat="48.7123" lon="1.69949">
        <ele>146.60000610352</ele>
        <time>2013-01-06T13:40:11.000Z</time>
      </trkpt>
      <trkpt lat="48.7123" lon="1.69934">
        <ele>146.60000610352</ele>
        <time>2013-01-06T13:40:17.000Z</time>
      </trkpt>
      <trkpt lat="48.7123" lon="1.69913">
        <ele>146.80000305176</ele>
        <time>2013-01-06T13:40:25.000Z</time>
      </trkpt>
      <trkpt lat="48.71231" lon="1.69908">
        <ele>146.80000305176</ele>
        <time>2013-01-06T13:40:27.000Z</time>
      </trkpt>
      <trkpt lat="48.71233" lon="1.69894">
        <ele>146.80000305176</ele>
        <time>2013-01-06T13:40:32.000Z</time>
      </trkpt>
      <trkpt lat="48.71234" lon="1.69889">
        <ele>146.80000305176</ele>
        <time>2013-01-06T13:40:34.000Z</time>
      </trkpt>
      <trkpt lat="48.71234" lon="1.69867">
        <ele>147</ele>
        <time>2013-01-06T13:40:43.000Z</time>
      </trkpt>
      <trkpt lat="48.71236" lon="1.69852">
        <ele>147</ele>
        <time>2013-01-06T13:40:48.000Z</time>
      </trkpt>
      <trkpt lat="48.71238" lon="1.69835">
        <ele>147.19999694824</ele>
        <time>2013-01-06T13:40:54.000Z</time>
      </trkpt>
      <trkpt lat="48.71239" lon="1.69814">
        <ele>147.39999389648</ele>
        <time>2013-01-06T13:41:03.000Z</time>
      </trkpt>
      <trkpt lat="48.71241" lon="1.69802">
        <ele>147.39999389648</ele>
        <time>2013-01-06T13:41:08.000Z</time>
      </trkpt>
      <trkpt lat="48.71244" lon="1.69789">
        <ele>147.60000610352</ele>
        <time>2013-01-06T13:41:14.000Z</time>
      </trkpt>
      <trkpt lat="48.71247" lon="1.69774">
        <ele>147.60000610352</ele>
        <time>2013-01-06T13:41:22.000Z</time>
      </trkpt>
      <trkpt lat="48.71251" lon="1.69755">
        <ele>147.80000305176</ele>
        <time>2013-01-06T13:41:31.000Z</time>
      </trkpt>
      <trkpt lat="48.71254" lon="1.69739">
        <ele>148.19999694824</ele>
        <time>2013-01-06T13:41:39.000Z</time>
      </trkpt>
      <trkpt lat="48.71257" lon="1.69721">
        <ele>148.80000305176</ele>
        <time>2013-01-06T13:41:48.000Z</time>
      </trkpt>
      <trkpt lat="48.71259" lon="1.69705">
        <ele>149.19999694824</ele>
        <time>2013-01-06T13:41:55.000Z</time>
      </trkpt>
      <trkpt lat="48.71261" lon="1.69685">
        <ele>149.80000305176</ele>
        <time>2013-01-06T13:42:05.000Z</time>
      </trkpt>
      <trkpt lat="48.7126" lon="1.69674">
        <ele>150.19999694824</ele>
        <time>2013-01-06T13:42:12.000Z</time>
      </trkpt>
      <trkpt lat="48.71255" lon="1.69668">
        <ele>150.60000610352</ele>
        <time>2013-01-06T13:42:17.000Z</time>
      </trkpt>
      <trkpt lat="48.7124" lon="1.69663">
        <ele>151.60000610352</ele>
        <time>2013-01-06T13:42:27.000Z</time>
      </trkpt>
      <trkpt lat="48.7123" lon="1.69665">
        <ele>152.19999694824</ele>
        <time>2013-01-06T13:42:34.000Z</time>
      </trkpt>
      <trkpt lat="48.71222" lon="1.69666">
        <ele>152.60000610352</ele>
        <time>2013-01-06T13:42:39.000Z</time>
      </trkpt>
      <trkpt lat="48.71211" lon="1.69665">
        <ele>153.39999389648</ele>
        <time>2013-01-06T13:42:46.000Z</time>
      </trkpt>
      <trkpt lat="48.71205" lon="1.69658">
        <ele>154</ele>
        <time>2013-01-06T13:42:51.000Z</time>
      </trkpt>
      <trkpt lat="48.71204" lon="1.69656">
        <ele>154.19999694824</ele>
        <time>2013-01-06T13:42:52.000Z</time>
      </trkpt>
      <trkpt lat="48.71199" lon="1.69646">
        <ele>155</ele>
        <time>2013-01-06T13:42:57.000Z</time>
      </trkpt>
      <trkpt lat="48.71192" lon="1.69634">
        <ele>156.19999694824</ele>
        <time>2013-01-06T13:43:04.000Z</time>
      </trkpt>
      <trkpt lat="48.71184" lon="1.69623">
        <ele>157.19999694824</ele>
        <time>2013-01-06T13:43:10.000Z</time>
      </trkpt>
      <trkpt lat="48.71177" lon="1.69613">
        <ele>158.39999389648</ele>
        <time>2013-01-06T13:43:17.000Z</time>
      </trkpt>
      <trkpt lat="48.71173" lon="1.69595">
        <ele>159.60000610352</ele>
        <time>2013-01-06T13:43:25.000Z</time>
      </trkpt>
      <trkpt lat="48.71168" lon="1.6958">
        <ele>160.80000305176</ele>
        <time>2013-01-06T13:43:31.000Z</time>
      </trkpt>
      <trkpt lat="48.71161" lon="1.69574">
        <ele>161.39999389648</ele>
        <time>2013-01-06T13:43:36.000Z</time>
      </trkpt>
      <trkpt lat="48.71151" lon="1.69569">
        <ele>162.39999389648</ele>
        <time>2013-01-06T13:43:42.000Z</time>
      </trkpt>
      <trkpt lat="48.71143" lon="1.69566">
        <ele>163.19999694824</ele>
        <time>2013-01-06T13:43:47.000Z</time>
      </trkpt>
      <trkpt lat="48.71135" lon="1.69565">
        <ele>164</ele>
        <time>2013-01-06T13:43:53.000Z</time>
      </trkpt>
      <trkpt lat="48.71123" lon="1.6956">
        <ele>165.19999694824</ele>
        <time>2013-01-06T13:44:00.000Z</time>
      </trkpt>
      <trkpt lat="48.71114" lon="1.69558">
        <ele>166.19999694824</ele>
        <time>2013-01-06T13:44:05.000Z</time>
      </trkpt>
      <trkpt lat="48.7111" lon="1.69557">
        <ele>166.80000305176</ele>
        <time>2013-01-06T13:44:09.000Z</time>
      </trkpt>
      <trkpt lat="48.71103" lon="1.69554">
        <ele>167.39999389648</ele>
        <time>2013-01-06T13:44:14.000Z</time>
      </trkpt>
      <trkpt lat="48.71092" lon="1.69548">
        <ele>168.80000305176</ele>
        <time>2013-01-06T13:44:21.000Z</time>
      </trkpt>
      <trkpt lat="48.71082" lon="1.69543">
        <ele>170</ele>
        <time>2013-01-06T13:44:27.000Z</time>
      </trkpt>
      <trkpt lat="48.71073" lon="1.6954">
        <ele>170.60000610352</ele>
        <time>2013-01-06T13:44:34.000Z</time>
      </trkpt>
      <trkpt lat="48.71063" lon="1.69536">
        <ele>171.60000610352</ele>
        <time>2013-01-06T13:44:42.000Z</time>
      </trkpt>
      <trkpt lat="48.71052" lon="1.69531">
        <ele>172.39999389648</ele>
        <time>2013-01-06T13:44:50.000Z</time>
      </trkpt>
      <trkpt lat="48.71043" lon="1.69526">
        <ele>173.19999694824</ele>
        <time>2013-01-06T13:44:57.000Z</time>
      </trkpt>
      <trkpt lat="48.71032" lon="1.69517">
        <ele>174.19999694824</ele>
        <time>2013-01-06T13:45:06.000Z</time>
      </trkpt>
      <trkpt lat="48.71023" lon="1.69506">
        <ele>175</ele>
        <time>2013-01-06T13:45:14.000Z</time>
      </trkpt>
      <trkpt lat="48.71014" lon="1.69506">
        <ele>175.80000305176</ele>
        <time>2013-01-06T13:45:21.000Z</time>
      </trkpt>
      <trkpt lat="48.71006" lon="1.69505">
        <ele>176.39999389648</ele>
        <time>2013-01-06T13:45:27.000Z</time>
      </trkpt>
      <trkpt lat="48.70999" lon="1.69504">
        <ele>176.80000305176</ele>
        <time>2013-01-06T13:45:33.000Z</time>
      </trkpt>
      <trkpt lat="48.70989" lon="1.69504">
        <ele>177</ele>
        <time>2013-01-06T13:45:41.000Z</time>
      </trkpt>
      <trkpt lat="48.7098" lon="1.69504">
        <ele>177</ele>
        <time>2013-01-06T13:45:48.000Z</time>
      </trkpt>
      <trkpt lat="48.70968" lon="1.69503">
        <ele>177.19999694824</ele>
        <time>2013-01-06T13:45:56.000Z</time>
      </trkpt>
      <trkpt lat="48.70962" lon="1.69502">
        <ele>177.19999694824</ele>
        <time>2013-01-06T13:46:00.000Z</time>
      </trkpt>
      <trkpt lat="48.70952" lon="1.69502">
        <ele>177.39999389648</ele>
        <time>2013-01-06T13:46:07.000Z</time>
      </trkpt>
      <trkpt lat="48.70943" lon="1.69502">
        <ele>177.39999389648</ele>
        <time>2013-01-06T13:46:13.000Z</time>
      </trkpt>
      <trkpt lat="48.70942" lon="1.69503">
        <ele>177.39999389648</ele>
        <time>2013-01-06T13:46:14.000Z</time>
      </trkpt>
      <trkpt lat="48.70928" lon="1.69501">
        <ele>177.60000610352</ele>
        <time>2013-01-06T13:46:23.000Z</time>
      </trkpt>
      <trkpt lat="48.70916" lon="1.69502">
        <ele>177.80000305176</ele>
        <time>2013-01-06T13:46:31.000Z</time>
      </trkpt>
      <trkpt lat="48.70908" lon="1.695">
        <ele>178.19999694824</ele>
        <time>2013-01-06T13:46:37.000Z</time>
      </trkpt>
      <trkpt lat="48.70896" lon="1.69499">
        <ele>178.60000610352</ele>
        <time>2013-01-06T13:46:47.000Z</time>
      </trkpt>
      <trkpt lat="48.70886" lon="1.69497">
        <ele>179</ele>
        <time>2013-01-06T13:46:54.000Z</time>
      </trkpt>
      <trkpt lat="48.70877" lon="1.69498">
        <ele>179.39999389648</ele>
        <time>2013-01-06T13:47:00.000Z</time>
      </trkpt>
      <trkpt lat="48.70865" lon="1.69495">
        <ele>179.80000305176</ele>
        <time>2013-01-06T13:47:08.000Z</time>
      </trkpt>
      <trkpt lat="48.70856" lon="1.69489">
        <ele>180.19999694824</ele>
        <time>2013-01-06T13:47:14.000Z</time>
      </trkpt>
      <trkpt lat="48.70851" lon="1.69487">
        <ele>180.39999389648</ele>
        <time>2013-01-06T13:47:17.000Z</time>
      </trkpt>
      <trkpt lat="48.70844" lon="1.69479">
        <ele>180.80000305176</ele>
        <time>2013-01-06T13:47:23.000Z</time>
      </trkpt>
      <trkpt lat="48.70837" lon="1.69474">
        <ele>181</ele>
        <time>2013-01-06T13:47:29.000Z</time>
      </trkpt>
      <trkpt lat="48.70833" lon="1.69471">
        <ele>181.19999694824</ele>
        <time>2013-01-06T13:47:32.000Z</time>
      </trkpt>
      <trkpt lat="48.7082" lon="1.69461">
        <ele>181.19999694824</ele>
        <time>2013-01-06T13:47:42.000Z</time>
      </trkpt>
      <trkpt lat="48.70811" lon="1.69452">
        <ele>181.19999694824</ele>
        <time>2013-01-06T13:47:49.000Z</time>
      </trkpt>
      <trkpt lat="48.70805" lon="1.69445">
        <ele>181.19999694824</ele>
        <time>2013-01-06T13:47:55.000Z</time>
      </trkpt>
      <trkpt lat="48.70795" lon="1.69437">
        <ele>181.19999694824</ele>
        <time>2013-01-06T13:48:03.000Z</time>
      </trkpt>
      <trkpt lat="48.70785" lon="1.69436">
        <ele>181</ele>
        <time>2013-01-06T13:48:10.000Z</time>
      </trkpt>
      <trkpt lat="48.70783" lon="1.69449">
        <ele>181</ele>
        <time>2013-01-06T13:48:16.000Z</time>
      </trkpt>
      <trkpt lat="48.70785" lon="1.69466">
        <ele>180.80000305176</ele>
        <time>2013-01-06T13:48:23.000Z</time>
      </trkpt>
      <trkpt lat="48.70787" lon="1.69487">
        <ele>180.39999389648</ele>
        <time>2013-01-06T13:48:32.000Z</time>
      </trkpt>
      <trkpt lat="48.70788" lon="1.69497">
        <ele>180.39999389648</ele>
        <time>2013-01-06T13:48:36.000Z</time>
      </trkpt>
      <trkpt lat="48.70791" lon="1.69512">
        <ele>180.39999389648</ele>
        <time>2013-01-06T13:48:43.000Z</time>
      </trkpt>
      <trkpt lat="48.70793" lon="1.69524">
        <ele>180.19999694824</ele>
        <time>2013-01-06T13:48:48.000Z</time>
      </trkpt>
      <trkpt lat="48.70794" lon="1.69536">
        <ele>180.19999694824</ele>
        <time>2013-01-06T13:48:54.000Z</time>
      </trkpt>
      <trkpt lat="48.70795" lon="1.69545">
        <ele>180.19999694824</ele>
        <time>2013-01-06T13:48:58.000Z</time>
      </trkpt>
      <trkpt lat="48.70794" lon="1.6956">
        <ele>180</ele>
        <time>2013-01-06T13:49:04.000Z</time>
      </trkpt>
      <trkpt lat="48.70793" lon="1.69576">
        <ele>180</ele>
        <time>2013-01-06T13:49:11.000Z</time>
      </trkpt>
      <trkpt lat="48.70792" lon="1.69593">
        <ele>179.80000305176</ele>
        <time>2013-01-06T13:49:20.000Z</time>
      </trkpt>
      <trkpt lat="48.70788" lon="1.6961">
        <ele>179.80000305176</ele>
        <time>2013-01-06T13:49:28.000Z</time>
      </trkpt>
      <trkpt lat="48.70785" lon="1.69623">
        <ele>179.60000610352</ele>
        <time>2013-01-06T13:49:34.000Z</time>
      </trkpt>
      <trkpt lat="48.70784" lon="1.69631">
        <ele>179.60000610352</ele>
        <time>2013-01-06T13:49:38.000Z</time>
      </trkpt>
      <trkpt lat="48.70782" lon="1.69647">
        <ele>179.80000305176</ele>
        <time>2013-01-06T13:49:47.000Z</time>
      </trkpt>
      <trkpt lat="48.7078" lon="1.69657">
        <ele>179.80000305176</ele>
        <time>2013-01-06T13:49:53.000Z</time>
      </trkpt>
      <trkpt lat="48.70777" lon="1.69663">
        <ele>179.80000305176</ele>
        <time>2013-01-06T13:49:56.000Z</time>
      </trkpt>
      <trkpt lat="48.70775" lon="1.69674">
        <ele>180</ele>
        <time>2013-01-06T13:50:01.000Z</time>
      </trkpt>
      <trkpt lat="48.70775" lon="1.69676">
        <ele>179.80000305176</ele>
        <time>2013-01-06T13:50:02.000Z</time>
      </trkpt>
      <trkpt lat="48.70774" lon="1.697">
        <ele>179.60000610352</ele>
        <time>2013-01-06T13:50:12.000Z</time>
      </trkpt>
      <trkpt lat="48.70774" lon="1.6972">
        <ele>179.39999389648</ele>
        <time>2013-01-06T13:50:21.000Z</time>
      </trkpt>
      <trkpt lat="48.70773" lon="1.69739">
        <ele>179.19999694824</ele>
        <time>2013-01-06T13:50:29.000Z</time>
      </trkpt>
      <trkpt lat="48.7077" lon="1.69763">
        <ele>179.39999389648</ele>
        <time>2013-01-06T13:50:39.000Z</time>
      </trkpt>
      <trkpt lat="48.70765" lon="1.69784">
        <ele>179.80000305176</ele>
        <time>2013-01-06T13:50:48.000Z</time>
      </trkpt>
      <trkpt lat="48.70762" lon="1.69803">
        <ele>180</ele>
        <time>2013-01-06T13:50:56.000Z</time>
      </trkpt>
      <trkpt lat="48.70761" lon="1.69818">
        <ele>180.39999389648</ele>
        <time>2013-01-06T13:51:02.000Z</time>
      </trkpt>
      <trkpt lat="48.70759" lon="1.69831">
        <ele>180.60000610352</ele>
        <time>2013-01-06T13:51:08.000Z</time>
      </trkpt>
      <trkpt lat="48.70754" lon="1.69846">
        <ele>181.19999694824</ele>
        <time>2013-01-06T13:51:15.000Z</time>
      </trkpt>
      <trkpt lat="48.70748" lon="1.69865">
        <ele>182</ele>
        <time>2013-01-06T13:51:24.000Z</time>
      </trkpt>
      <trkpt lat="48.70742" lon="1.69888">
        <ele>182.80000305176</ele>
        <time>2013-01-06T13:51:33.000Z</time>
      </trkpt>
      <trkpt lat="48.7074" lon="1.69904">
        <ele>183.39999389648</ele>
        <time>2013-01-06T13:51:40.000Z</time>
      </trkpt>
      <trkpt lat="48.70739" lon="1.69924">
        <ele>184.19999694824</ele>
        <time>2013-01-06T13:51:48.000Z</time>
      </trkpt>
      <trkpt lat="48.70739" lon="1.69936">
        <ele>184.80000305176</ele>
        <time>2013-01-06T13:51:52.000Z</time>
      </trkpt>
      <trkpt lat="48.7074" lon="1.69954">
        <ele>185.60000610352</ele>
        <time>2013-01-06T13:52:00.000Z</time>
      </trkpt>
      <trkpt lat="48.70742" lon="1.69967">
        <ele>186.19999694824</ele>
        <time>2013-01-06T13:52:05.000Z</time>
      </trkpt>
      <trkpt lat="48.70744" lon="1.69984">
        <ele>187</ele>
        <time>2013-01-06T13:52:12.000Z</time>
      </trkpt>
      <trkpt lat="48.70743" lon="1.7">
        <ele>187.80000305176</ele>
        <time>2013-01-06T13:52:19.000Z</time>
      </trkpt>
      <trkpt lat="48.70742" lon="1.70016">
        <ele>187.80000305176</ele>
        <time>2013-01-06T13:52:26.000Z</time>
      </trkpt>
      <trkpt lat="48.70742" lon="1.70033">
        <ele>187.80000305176</ele>
        <time>2013-01-06T13:52:33.000Z</time>
      </trkpt>
      <trkpt lat="48.70742" lon="1.70036">
        <ele>187.80000305176</ele>
        <time>2013-01-06T13:52:34.000Z</time>
      </trkpt>
      <trkpt lat="48.70741" lon="1.70049">
        <ele>187.80000305176</ele>
        <time>2013-01-06T13:52:40.000Z</time>
      </trkpt>
      <trkpt lat="48.70742" lon="1.70066">
        <ele>187.80000305176</ele>
        <time>2013-01-06T13:52:47.000Z</time>
      </trkpt>
      <trkpt lat="48.7074" lon="1.70081">
        <ele>187.80000305176</ele>
        <time>2013-01-06T13:52:53.000Z</time>
      </trkpt>
      <trkpt lat="48.70739" lon="1.70097">
        <ele>187.39999389648</ele>
        <time>2013-01-06T13:53:00.000Z</time>
      </trkpt>
      <trkpt lat="48.70736" lon="1.70111">
        <ele>187</ele>
        <time>2013-01-06T13:53:06.000Z</time>
      </trkpt>
      <trkpt lat="48.70735" lon="1.7013">
        <ele>186.39999389648</ele>
        <time>2013-01-06T13:53:14.000Z</time>
      </trkpt>
      <trkpt lat="48.70734" lon="1.7015">
        <ele>185.80000305176</ele>
        <time>2013-01-06T13:53:23.000Z</time>
      </trkpt>
      <trkpt lat="48.70734" lon="1.70167">
        <ele>185.39999389648</ele>
        <time>2013-01-06T13:53:30.000Z</time>
      </trkpt>
      <trkpt lat="48.70734" lon="1.70178">
        <ele>185</ele>
        <time>2013-01-06T13:53:35.000Z</time>
      </trkpt>
      <trkpt lat="48.70734" lon="1.70192">
        <ele>184.60000610352</ele>
        <time>2013-01-06T13:53:41.000Z</time>
      </trkpt>
      <trkpt lat="48.70733" lon="1.70205">
        <ele>184.19999694824</ele>
        <time>2013-01-06T13:53:47.000Z</time>
      </trkpt>
      <trkpt lat="48.70733" lon="1.7022">
        <ele>183.80000305176</ele>
        <time>2013-01-06T13:53:52.000Z</time>
      </trkpt>
      <trkpt lat="48.70733" lon="1.70226">
        <ele>183.80000305176</ele>
        <time>2013-01-06T13:53:54.000Z</time>
      </trkpt>
      <trkpt lat="48.70727" lon="1.70247">
        <ele>182.80000305176</ele>
        <time>2013-01-06T13:54:02.000Z</time>
      </trkpt>
      <trkpt lat="48.70724" lon="1.70264">
        <ele>181.80000305176</ele>
        <time>2013-01-06T13:54:10.000Z</time>
      </trkpt>
      <trkpt lat="48.7072" lon="1.70288">
        <ele>180</ele>
        <time>2013-01-06T13:54:20.000Z</time>
      </trkpt>
      <trkpt lat="48.70715" lon="1.7031">
        <ele>178.80000305176</ele>
        <time>2013-01-06T13:54:30.000Z</time>
      </trkpt>
      <trkpt lat="48.70712" lon="1.70329">
        <ele>178</ele>
        <time>2013-01-06T13:54:38.000Z</time>
      </trkpt>
      <trkpt lat="48.70709" lon="1.70344">
        <ele>177.80000305176</ele>
        <time>2013-01-06T13:54:45.000Z</time>
      </trkpt>
      <trkpt lat="48.70705" lon="1.70363">
        <ele>178.19999694824</ele>
        <time>2013-01-06T13:54:54.000Z</time>
      </trkpt>
      <trkpt lat="48.70699" lon="1.70382">
        <ele>179</ele>
        <time>2013-01-06T13:55:03.000Z</time>
      </trkpt>
      <trkpt lat="48.70695" lon="1.70397">
        <ele>180</ele>
        <time>2013-01-06T13:55:09.000Z</time>
      </trkpt>
      <trkpt lat="48.70691" lon="1.7042">
        <ele>181.39999389648</ele>
        <time>2013-01-06T13:55:18.000Z</time>
      </trkpt>
      <trkpt lat="48.70691" lon="1.70432">
        <ele>181.60000610352</ele>
        <time>2013-01-06T13:55:24.000Z</time>
      </trkpt>
      <trkpt lat="48.70687" lon="1.70447">
        <ele>182.60000610352</ele>
        <time>2013-01-06T13:55:30.000Z</time>
      </trkpt>
      <trkpt lat="48.70683" lon="1.70465">
        <ele>183.80000305176</ele>
        <time>2013-01-06T13:55:38.000Z</time>
      </trkpt>
      <trkpt lat="48.70678" lon="1.70479">
        <ele>184.80000305176</ele>
        <time>2013-01-06T13:55:44.000Z</time>
      </trkpt>
      <trkpt lat="48.70671" lon="1.705">
        <ele>186.19999694824</ele>
        <time>2013-01-06T13:55:53.000Z</time>
      </trkpt>
      <trkpt lat="48.70665" lon="1.7052">
        <ele>186.39999389648</ele>
        <time>2013-01-06T13:56:01.000Z</time>
      </trkpt>
      <trkpt lat="48.7066" lon="1.70536">
        <ele>186.19999694824</ele>
        <time>2013-01-06T13:56:08.000Z</time>
      </trkpt>
      <trkpt lat="48.70659" lon="1.70553">
        <ele>185.80000305176</ele>
        <time>2013-01-06T13:56:14.000Z</time>
      </trkpt>
      <trkpt lat="48.70663" lon="1.70569">
        <ele>185.39999389648</ele>
        <time>2013-01-06T13:56:20.000Z</time>
      </trkpt>
      <trkpt lat="48.70667" lon="1.70582">
        <ele>185</ele>
        <time>2013-01-06T13:56:26.000Z</time>
      </trkpt>
      <trkpt lat="48.7067" lon="1.70593">
        <ele>184.80000305176</ele>
        <time>2013-01-06T13:56:31.000Z</time>
      </trkpt>
      <trkpt lat="48.70672" lon="1.70602">
        <ele>184.80000305176</ele>
        <time>2013-01-06T13:56:35.000Z</time>
      </trkpt>
      <trkpt lat="48.70678" lon="1.70619">
        <ele>184.60000610352</ele>
        <time>2013-01-06T13:56:42.000Z</time>
      </trkpt>
      <trkpt lat="48.70683" lon="1.70634">
        <ele>184.60000610352</ele>
        <time>2013-01-06T13:56:49.000Z</time>
      </trkpt>
      <trkpt lat="48.70687" lon="1.70653">
        <ele>184.80000305176</ele>
        <time>2013-01-06T13:56:57.000Z</time>
      </trkpt>
      <trkpt lat="48.70693" lon="1.70669">
        <ele>185</ele>
        <time>2013-01-06T13:57:05.000Z</time>
      </trkpt>
      <trkpt lat="48.707" lon="1.7069">
        <ele>185</ele>
        <time>2013-01-06T13:57:14.000Z</time>
      </trkpt>
      <trkpt lat="48.70706" lon="1.70708">
        <ele>185.19999694824</ele>
        <time>2013-01-06T13:57:20.000Z</time>
      </trkpt>
      <trkpt lat="48.70712" lon="1.70729">
        <ele>185.39999389648</ele>
        <time>2013-01-06T13:57:26.000Z</time>
      </trkpt>
      <trkpt lat="48.7072" lon="1.70752">
        <ele>185.60000610352</ele>
        <time>2013-01-06T13:57:32.000Z</time>
      </trkpt>
      <trkpt lat="48.70725" lon="1.70768">
        <ele>185.60000610352</ele>
        <time>2013-01-06T13:57:37.000Z</time>
      </trkpt>
      <trkpt lat="48.70729" lon="1.7078">
        <ele>185.60000610352</ele>
        <time>2013-01-06T13:57:41.000Z</time>
      </trkpt>
      <trkpt lat="48.70737" lon="1.70804">
        <ele>185.60000610352</ele>
        <time>2013-01-06T13:57:47.000Z</time>
      </trkpt>
      <trkpt lat="48.70744" lon="1.70828">
        <ele>185.80000305176</ele>
        <time>2013-01-06T13:57:53.000Z</time>
      </trkpt>
      <trkpt lat="48.70748" lon="1.70843">
        <ele>185.80000305176</ele>
        <time>2013-01-06T13:57:58.000Z</time>
      </trkpt>
      <trkpt lat="48.70753" lon="1.70857">
        <ele>185.60000610352</ele>
        <time>2013-01-06T13:58:04.000Z</time>
      </trkpt>
      <trkpt lat="48.70759" lon="1.70876">
        <ele>185.39999389648</ele>
        <time>2013-01-06T13:58:10.000Z</time>
      </trkpt>
      <trkpt lat="48.70765" lon="1.70899">
        <ele>185.19999694824</ele>
        <time>2013-01-06T13:58:15.000Z</time>
      </trkpt>
      <trkpt lat="48.70774" lon="1.70925">
        <ele>185</ele>
        <time>2013-01-06T13:58:20.000Z</time>
      </trkpt>
      <trkpt lat="48.70783" lon="1.70949">
        <ele>184.80000305176</ele>
        <time>2013-01-06T13:58:26.000Z</time>
      </trkpt>
      <trkpt lat="48.70792" lon="1.70977">
        <ele>184.60000610352</ele>
        <time>2013-01-06T13:58:32.000Z</time>
      </trkpt>
      <trkpt lat="48.70802" lon="1.71006">
        <ele>184.80000305176</ele>
        <time>2013-01-06T13:58:38.000Z</time>
      </trkpt>
      <trkpt lat="48.70814" lon="1.71042">
        <ele>185.80000305176</ele>
        <time>2013-01-06T13:58:45.000Z</time>
      </trkpt>
      <trkpt lat="48.70826" lon="1.71078">
        <ele>186.60000610352</ele>
        <time>2013-01-06T13:58:52.000Z</time>
      </trkpt>
      <trkpt lat="48.70837" lon="1.71108">
        <ele>187.19999694824</ele>
        <time>2013-01-06T13:58:58.000Z</time>
      </trkpt>
      <trkpt lat="48.70851" lon="1.71143">
        <ele>186.80000305176</ele>
        <time>2013-01-06T13:59:05.000Z</time>
      </trkpt>
      <trkpt lat="48.70864" lon="1.7118">
        <ele>186.19999694824</ele>
        <time>2013-01-06T13:59:12.000Z</time>
      </trkpt>
      <trkpt lat="48.70868" lon="1.71191">
        <ele>185.80000305176</ele>
        <time>2013-01-06T13:59:14.000Z</time>
      </trkpt>
      <trkpt lat="48.70874" lon="1.71209">
        <ele>185.19999694824</ele>
        <time>2013-01-06T13:59:17.000Z</time>
      </trkpt>
      <trkpt lat="48.70877" lon="1.71221">
        <ele>184.80000305176</ele>
        <time>2013-01-06T13:59:19.000Z</time>
      </trkpt>
      <trkpt lat="48.70881" lon="1.71231">
        <ele>184.39999389648</ele>
        <time>2013-01-06T13:59:21.000Z</time>
      </trkpt>
      <trkpt lat="48.70894" lon="1.71271">
        <ele>182.80000305176</ele>
        <time>2013-01-06T13:59:29.000Z</time>
      </trkpt>
      <trkpt lat="48.70904" lon="1.71302">
        <ele>181.80000305176</ele>
        <time>2013-01-06T13:59:35.000Z</time>
      </trkpt>
      <trkpt lat="48.70915" lon="1.71339">
        <ele>181.19999694824</ele>
        <time>2013-01-06T13:59:42.000Z</time>
      </trkpt>
      <trkpt lat="48.70924" lon="1.71371">
        <ele>181</ele>
        <time>2013-01-06T13:59:48.000Z</time>
      </trkpt>
      <trkpt lat="48.70934" lon="1.71405">
        <ele>180.80000305176</ele>
        <time>2013-01-06T13:59:55.000Z</time>
      </trkpt>
      <trkpt lat="48.70939" lon="1.7142">
        <ele>181</ele>
        <time>2013-01-06T13:59:59.000Z</time>
      </trkpt>
      <trkpt lat="48.70943" lon="1.71433">
        <ele>181</ele>
        <time>2013-01-06T14:00:04.000Z</time>
      </trkpt>
      <trkpt lat="48.70946" lon="1.71445">
        <ele>181.19999694824</ele>
        <time>2013-01-06T14:00:10.000Z</time>
      </trkpt>
      <trkpt lat="48.70951" lon="1.7146">
        <ele>181.39999389648</ele>
        <time>2013-01-06T14:00:16.000Z</time>
      </trkpt>
      <trkpt lat="48.70956" lon="1.71474">
        <ele>181.60000610352</ele>
        <time>2013-01-06T14:00:22.000Z</time>
      </trkpt>
      <trkpt lat="48.70959" lon="1.71488">
        <ele>182.19999694824</ele>
        <time>2013-01-06T14:00:28.000Z</time>
      </trkpt>
      <trkpt lat="48.7096" lon="1.71494">
        <ele>182.19999694824</ele>
        <time>2013-01-06T14:00:31.000Z</time>
      </trkpt>
      <trkpt lat="48.70968" lon="1.71512">
        <ele>182.19999694824</ele>
        <time>2013-01-06T14:00:39.000Z</time>
      </trkpt>
      <trkpt lat="48.7097" lon="1.71519">
        <ele>182.19999694824</ele>
        <time>2013-01-06T14:00:42.000Z</time>
      </trkpt>
      <trkpt lat="48.70972" lon="1.71528">
        <ele>182.39999389648</ele>
        <time>2013-01-06T14:00:46.000Z</time>
      </trkpt>
      <trkpt lat="48.70975" lon="1.71539">
        <ele>182.39999389648</ele>
        <time>2013-01-06T14:00:51.000Z</time>
      </trkpt>
      <trkpt lat="48.7098" lon="1.71553">
        <ele>182.80000305176</ele>
        <time>2013-01-06T14:00:57.000Z</time>
      </trkpt>
      <trkpt lat="48.70986" lon="1.71569">
        <ele>183</ele>
        <time>2013-01-06T14:01:04.000Z</time>
      </trkpt>
      <trkpt lat="48.70991" lon="1.7158">
        <ele>183.19999694824</ele>
        <time>2013-01-06T14:01:10.000Z</time>
      </trkpt>
      <trkpt lat="48.70994" lon="1.71596">
        <ele>183.60000610352</ele>
        <time>2013-01-06T14:01:16.000Z</time>
      </trkpt>
      <trkpt lat="48.70995" lon="1.71598">
        <ele>183.80000305176</ele>
        <time>2013-01-06T14:01:17.000Z</time>
      </trkpt>
      <trkpt lat="48.70994" lon="1.71605">
        <ele>184</ele>
        <time>2013-01-06T14:01:20.000Z</time>
      </trkpt>
      <trkpt lat="48.70986" lon="1.71614">
        <ele>184.60000610352</ele>
        <time>2013-01-06T14:01:27.000Z</time>
      </trkpt>
      <trkpt lat="48.70977" lon="1.71621">
        <ele>185.19999694824</ele>
        <time>2013-01-06T14:01:32.000Z</time>
      </trkpt>
      <trkpt lat="48.70976" lon="1.71622">
        <ele>185.19999694824</ele>
        <time>2013-01-06T14:01:33.000Z</time>
      </trkpt>
      <trkpt lat="48.70965" lon="1.71635">
        <ele>185.80000305176</ele>
        <time>2013-01-06T14:01:40.000Z</time>
      </trkpt>
      <trkpt lat="48.70956" lon="1.71645">
        <ele>186.19999694824</ele>
        <time>2013-01-06T14:01:47.000Z</time>
      </trkpt>
      <trkpt lat="48.70946" lon="1.71653">
        <ele>186.39999389648</ele>
        <time>2013-01-06T14:01:55.000Z</time>
      </trkpt>
      <trkpt lat="48.70937" lon="1.71662">
        <ele>186.60000610352</ele>
        <time>2013-01-06T14:02:02.000Z</time>
      </trkpt>
      <trkpt lat="48.70927" lon="1.71671">
        <ele>187</ele>
        <time>2013-01-06T14:02:10.000Z</time>
      </trkpt>
      <trkpt lat="48.70918" lon="1.7168">
        <ele>187.39999389648</ele>
        <time>2013-01-06T14:02:17.000Z</time>
      </trkpt>
      <trkpt lat="48.70909" lon="1.71688">
        <ele>187.39999389648</ele>
        <time>2013-01-06T14:02:25.000Z</time>
      </trkpt>
      <trkpt lat="48.70901" lon="1.71695">
        <ele>187.39999389648</ele>
        <time>2013-01-06T14:02:31.000Z</time>
      </trkpt>
      <trkpt lat="48.70892" lon="1.71704">
        <ele>187.19999694824</ele>
        <time>2013-01-06T14:02:39.000Z</time>
      </trkpt>
      <trkpt lat="48.7088" lon="1.71717">
        <ele>186.80000305176</ele>
        <time>2013-01-06T14:02:47.000Z</time>
      </trkpt>
      <trkpt lat="48.70871" lon="1.71727">
        <ele>186.39999389648</ele>
        <time>2013-01-06T14:02:54.000Z</time>
      </trkpt>
      <trkpt lat="48.70859" lon="1.71737">
        <ele>185.80000305176</ele>
        <time>2013-01-06T14:03:02.000Z</time>
      </trkpt>
      <trkpt lat="48.70852" lon="1.71742">
        <ele>185.39999389648</ele>
        <time>2013-01-06T14:03:08.000Z</time>
      </trkpt>
      <trkpt lat="48.70843" lon="1.71748">
        <ele>184.60000610352</ele>
        <time>2013-01-06T14:03:15.000Z</time>
      </trkpt>
      <trkpt lat="48.70833" lon="1.71755">
        <ele>184</ele>
        <time>2013-01-06T14:03:23.000Z</time>
      </trkpt>
      <trkpt lat="48.70822" lon="1.71765">
        <ele>184.60000610352</ele>
        <time>2013-01-06T14:03:31.000Z</time>
      </trkpt>
      <trkpt lat="48.70814" lon="1.71774">
        <ele>185.19999694824</ele>
        <time>2013-01-06T14:03:36.000Z</time>
      </trkpt>
      <trkpt lat="48.70807" lon="1.71781">
        <ele>185.39999389648</ele>
        <time>2013-01-06T14:03:42.000Z</time>
      </trkpt>
      <trkpt lat="48.70799" lon="1.71792">
        <ele>186</ele>
        <time>2013-01-06T14:03:49.000Z</time>
      </trkpt>
      <trkpt lat="48.70791" lon="1.718">
        <ele>186.39999389648</ele>
        <time>2013-01-06T14:03:55.000Z</time>
      </trkpt>
      <trkpt lat="48.70782" lon="1.7181">
        <ele>186.80000305176</ele>
        <time>2013-01-06T14:04:02.000Z</time>
      </trkpt>
      <trkpt lat="48.70777" lon="1.71814">
        <ele>187</ele>
        <time>2013-01-06T14:04:05.000Z</time>
      </trkpt>
      <trkpt lat="48.70771" lon="1.71819">
        <ele>187.19999694824</ele>
        <time>2013-01-06T14:04:09.000Z</time>
      </trkpt>
      <trkpt lat="48.70758" lon="1.7183">
        <ele>187.60000610352</ele>
        <time>2013-01-06T14:04:18.000Z</time>
      </trkpt>
      <trkpt lat="48.70747" lon="1.71839">
        <ele>188</ele>
        <time>2013-01-06T14:04:25.000Z</time>
      </trkpt>
      <trkpt lat="48.70746" lon="1.7184">
        <ele>188</ele>
        <time>2013-01-06T14:04:26.000Z</time>
      </trkpt>
      <trkpt lat="48.70734" lon="1.7185">
        <ele>188.19999694824</ele>
        <time>2013-01-06T14:04:35.000Z</time>
      </trkpt>
      <trkpt lat="48.7073" lon="1.71855">
        <ele>188.39999389648</ele>
        <time>2013-01-06T14:04:40.000Z</time>
      </trkpt>
      <trkpt lat="48.70722" lon="1.71863">
        <ele>188.39999389648</ele>
        <time>2013-01-06T14:04:46.000Z</time>
      </trkpt>
      <trkpt lat="48.70716" lon="1.71869">
        <ele>188.60000610352</ele>
        <time>2013-01-06T14:04:50.000Z</time>
      </trkpt>
      <trkpt lat="48.70703" lon="1.71878">
        <ele>188.80000305176</ele>
        <time>2013-01-06T14:04:58.000Z</time>
      </trkpt>
      <trkpt lat="48.70701" lon="1.71881">
        <ele>188.80000305176</ele>
        <time>2013-01-06T14:05:00.000Z</time>
      </trkpt>
      <trkpt lat="48.70694" lon="1.71885">
        <ele>188.80000305176</ele>
        <time>2013-01-06T14:05:05.000Z</time>
      </trkpt>
      <trkpt lat="48.7068" lon="1.71895">
        <ele>189</ele>
        <time>2013-01-06T14:05:14.000Z</time>
      </trkpt>
      <trkpt lat="48.70673" lon="1.719">
        <ele>189</ele>
        <time>2013-01-06T14:05:19.000Z</time>
      </trkpt>
      <trkpt lat="48.70662" lon="1.71907">
        <ele>189</ele>
        <time>2013-01-06T14:05:26.000Z</time>
      </trkpt>
      <trkpt lat="48.70654" lon="1.71913">
        <ele>188.60000610352</ele>
        <time>2013-01-06T14:05:32.000Z</time>
      </trkpt>
      <trkpt lat="48.7064" lon="1.71923">
        <ele>188.19999694824</ele>
        <time>2013-01-06T14:05:41.000Z</time>
      </trkpt>
      <trkpt lat="48.70632" lon="1.71929">
        <ele>188</ele>
        <time>2013-01-06T14:05:47.000Z</time>
      </trkpt>
      <trkpt lat="48.70629" lon="1.71929">
        <ele>187.80000305176</ele>
        <time>2013-01-06T14:05:49.000Z</time>
      </trkpt>
      <trkpt lat="48.70616" lon="1.7194">
        <ele>187.80000305176</ele>
        <time>2013-01-06T14:05:56.000Z</time>
      </trkpt>
      <trkpt lat="48.70609" lon="1.71945">
        <ele>187.80000305176</ele>
        <time>2013-01-06T14:06:01.000Z</time>
      </trkpt>
      <trkpt lat="48.70601" lon="1.71949">
        <ele>188</ele>
        <time>2013-01-06T14:06:06.000Z</time>
      </trkpt>
      <trkpt lat="48.70597" lon="1.71952">
        <ele>188</ele>
        <time>2013-01-06T14:06:09.000Z</time>
      </trkpt>
      <trkpt lat="48.70588" lon="1.71959">
        <ele>188.39999389648</ele>
        <time>2013-01-06T14:06:16.000Z</time>
      </trkpt>
      <trkpt lat="48.70579" lon="1.71965">
        <ele>188.60000610352</ele>
        <time>2013-01-06T14:06:23.000Z</time>
      </trkpt>
      <trkpt lat="48.70576" lon="1.71967">
        <ele>188.80000305176</ele>
        <time>2013-01-06T14:06:25.000Z</time>
      </trkpt>
      <trkpt lat="48.70571" lon="1.71971">
        <ele>188.80000305176</ele>
        <time>2013-01-06T14:06:29.000Z</time>
      </trkpt>
      <trkpt lat="48.70561" lon="1.71979">
        <ele>189</ele>
        <time>2013-01-06T14:06:37.000Z</time>
      </trkpt>
      <trkpt lat="48.70553" lon="1.71983">
        <ele>189.19999694824</ele>
        <time>2013-01-06T14:06:44.000Z</time>
      </trkpt>
      <trkpt lat="48.70552" lon="1.71984">
        <ele>189.19999694824</ele>
        <time>2013-01-06T14:06:45.000Z</time>
      </trkpt>
      <trkpt lat="48.70543" lon="1.71992">
        <ele>189.19999694824</ele>
        <time>2013-01-06T14:06:52.000Z</time>
      </trkpt>
      <trkpt lat="48.70533" lon="1.71999">
        <ele>189.19999694824</ele>
        <time>2013-01-06T14:06:59.000Z</time>
      </trkpt>
      <trkpt lat="48.70524" lon="1.72005">
        <ele>189.19999694824</ele>
        <time>2013-01-06T14:07:04.000Z</time>
      </trkpt>
      <trkpt lat="48.70515" lon="1.72012">
        <ele>189</ele>
        <time>2013-01-06T14:07:10.000Z</time>
      </trkpt>
      <trkpt lat="48.70506" lon="1.72017">
        <ele>188.80000305176</ele>
        <time>2013-01-06T14:07:16.000Z</time>
      </trkpt>
      <trkpt lat="48.70498" lon="1.72021">
        <ele>188.60000610352</ele>
        <time>2013-01-06T14:07:21.000Z</time>
      </trkpt>
      <trkpt lat="48.7049" lon="1.72027">
        <ele>188.19999694824</ele>
        <time>2013-01-06T14:07:27.000Z</time>
      </trkpt>
      <trkpt lat="48.70488" lon="1.72031">
        <ele>188</ele>
        <time>2013-01-06T14:07:30.000Z</time>
      </trkpt>
      <trkpt lat="48.70479" lon="1.72035">
        <ele>187.60000610352</ele>
        <time>2013-01-06T14:07:36.000Z</time>
      </trkpt>
      <trkpt lat="48.70468" lon="1.72041">
        <ele>187</ele>
        <time>2013-01-06T14:07:43.000Z</time>
      </trkpt>
      <trkpt lat="48.70463" lon="1.72046">
        <ele>186.80000305176</ele>
        <time>2013-01-06T14:07:47.000Z</time>
      </trkpt>
      <trkpt lat="48.70454" lon="1.72053">
        <ele>186.39999389648</ele>
        <time>2013-01-06T14:07:53.000Z</time>
      </trkpt>
      <trkpt lat="48.70452" lon="1.72054">
        <ele>186.39999389648</ele>
        <time>2013-01-06T14:07:54.000Z</time>
      </trkpt>
      <trkpt lat="48.7044" lon="1.72063">
        <ele>185.80000305176</ele>
        <time>2013-01-06T14:08:02.000Z</time>
      </trkpt>
      <trkpt lat="48.70431" lon="1.72068">
        <ele>185.39999389648</ele>
        <time>2013-01-06T14:08:07.000Z</time>
      </trkpt>
      <trkpt lat="48.70429" lon="1.7207">
        <ele>185.39999389648</ele>
        <time>2013-01-06T14:08:09.000Z</time>
      </trkpt>
      <trkpt lat="48.70421" lon="1.72075">
        <ele>185</ele>
        <time>2013-01-06T14:08:15.000Z</time>
      </trkpt>
      <trkpt lat="48.70413" lon="1.72082">
        <ele>184.80000305176</ele>
        <time>2013-01-06T14:08:21.000Z</time>
      </trkpt>
      <trkpt lat="48.70405" lon="1.72086">
        <ele>185</ele>
        <time>2013-01-06T14:08:26.000Z</time>
      </trkpt>
      <trkpt lat="48.70401" lon="1.72088">
        <ele>185</ele>
        <time>2013-01-06T14:08:28.000Z</time>
      </trkpt>
      <trkpt lat="48.70388" lon="1.72098">
        <ele>185</ele>
        <time>2013-01-06T14:08:36.000Z</time>
      </trkpt>
      <trkpt lat="48.7038" lon="1.72103">
        <ele>185</ele>
        <time>2013-01-06T14:08:42.000Z</time>
      </trkpt>
      <trkpt lat="48.70377" lon="1.72105">
        <ele>185</ele>
        <time>2013-01-06T14:08:44.000Z</time>
      </trkpt>
      <trkpt lat="48.70375" lon="1.72107">
        <ele>185</ele>
        <time>2013-01-06T14:08:46.000Z</time>
      </trkpt>
      <trkpt lat="48.70364" lon="1.72115">
        <ele>185.19999694824</ele>
        <time>2013-01-06T14:08:54.000Z</time>
      </trkpt>
      <trkpt lat="48.70355" lon="1.7212">
        <ele>185.19999694824</ele>
        <time>2013-01-06T14:09:00.000Z</time>
      </trkpt>
      <trkpt lat="48.70349" lon="1.72125">
        <ele>185.39999389648</ele>
        <time>2013-01-06T14:09:05.000Z</time>
      </trkpt>
      <trkpt lat="48.70344" lon="1.72128">
        <ele>185.39999389648</ele>
        <time>2013-01-06T14:09:08.000Z</time>
      </trkpt>
      <trkpt lat="48.70331" lon="1.72138">
        <ele>185.39999389648</ele>
        <time>2013-01-06T14:09:15.000Z</time>
      </trkpt>
      <trkpt lat="48.70323" lon="1.72142">
        <ele>185.19999694824</ele>
        <time>2013-01-06T14:09:21.000Z</time>
      </trkpt>
      <trkpt lat="48.70314" lon="1.72149">
        <ele>185.19999694824</ele>
        <time>2013-01-06T14:09:27.000Z</time>
      </trkpt>
      <trkpt lat="48.70306" lon="1.72156">
        <ele>185</ele>
        <time>2013-01-06T14:09:34.000Z</time>
      </trkpt>
      <trkpt lat="48.70305" lon="1.72158">
        <ele>185</ele>
        <time>2013-01-06T14:09:35.000Z</time>
      </trkpt>
      <trkpt lat="48.703" lon="1.72161">
        <ele>185</ele>
        <time>2013-01-06T14:09:39.000Z</time>
      </trkpt>
      <trkpt lat="48.70289" lon="1.7217">
        <ele>184.80000305176</ele>
        <time>2013-01-06T14:09:46.000Z</time>
      </trkpt>
      <trkpt lat="48.70284" lon="1.72183">
        <ele>184.80000305176</ele>
        <time>2013-01-06T14:09:52.000Z</time>
      </trkpt>
      <trkpt lat="48.70283" lon="1.72189">
        <ele>184.80000305176</ele>
        <time>2013-01-06T14:09:55.000Z</time>
      </trkpt>
      <trkpt lat="48.70282" lon="1.72209">
        <ele>185</ele>
        <time>2013-01-06T14:10:02.000Z</time>
      </trkpt>
      <trkpt lat="48.70279" lon="1.72219">
        <ele>185</ele>
        <time>2013-01-06T14:10:06.000Z</time>
      </trkpt>
      <trkpt lat="48.70275" lon="1.7224">
        <ele>185.19999694824</ele>
        <time>2013-01-06T14:10:14.000Z</time>
      </trkpt>
      <trkpt lat="48.70273" lon="1.72256">
        <ele>185.19999694824</ele>
        <time>2013-01-06T14:10:21.000Z</time>
      </trkpt>
      <trkpt lat="48.70271" lon="1.7227">
        <ele>185</ele>
        <time>2013-01-06T14:10:28.000Z</time>
      </trkpt>
      <trkpt lat="48.7027" lon="1.72272">
        <ele>185</ele>
        <time>2013-01-06T14:10:30.000Z</time>
      </trkpt>
      <trkpt lat="48.70266" lon="1.72282">
        <ele>185</ele>
        <time>2013-01-06T14:10:35.000Z</time>
      </trkpt>
      <trkpt lat="48.70263" lon="1.7229">
        <ele>185</ele>
        <time>2013-01-06T14:10:41.000Z</time>
      </trkpt>
      <trkpt lat="48.7026" lon="1.72303">
        <ele>184.80000305176</ele>
        <time>2013-01-06T14:10:48.000Z</time>
      </trkpt>
      <trkpt lat="48.70258" lon="1.72316">
        <ele>184.80000305176</ele>
        <time>2013-01-06T14:10:54.000Z</time>
      </trkpt>
      <trkpt lat="48.70256" lon="1.72325">
        <ele>184.80000305176</ele>
        <time>2013-01-06T14:10:58.000Z</time>
      </trkpt>
      <trkpt lat="48.70251" lon="1.72346">
        <ele>184.39999389648</ele>
        <time>2013-01-06T14:11:07.000Z</time>
      </trkpt>
      <trkpt lat="48.70251" lon="1.7235">
        <ele>184.19999694824</ele>
        <time>2013-01-06T14:11:09.000Z</time>
      </trkpt>
      <trkpt lat="48.70249" lon="1.72365">
        <ele>183.80000305176</ele>
        <time>2013-01-06T14:11:15.000Z</time>
      </trkpt>
      <trkpt lat="48.70247" lon="1.72378">
        <ele>183.39999389648</ele>
        <time>2013-01-06T14:11:20.000Z</time>
      </trkpt>
      <trkpt lat="48.70245" lon="1.72388">
        <ele>183</ele>
        <time>2013-01-06T14:11:24.000Z</time>
      </trkpt>
      <trkpt lat="48.70239" lon="1.72403">
        <ele>182.80000305176</ele>
        <time>2013-01-06T14:11:31.000Z</time>
      </trkpt>
      <trkpt lat="48.70236" lon="1.72414">
        <ele>182.60000610352</ele>
        <time>2013-01-06T14:11:40.000Z</time>
      </trkpt>
      <trkpt lat="48.70234" lon="1.72419">
        <ele>182.60000610352</ele>
        <time>2013-01-06T14:11:42.000Z</time>
      </trkpt>
      <trkpt lat="48.70231" lon="1.72438">
        <ele>182.39999389648</ele>
        <time>2013-01-06T14:11:51.000Z</time>
      </trkpt>
      <trkpt lat="48.70227" lon="1.72452">
        <ele>182.19999694824</ele>
        <time>2013-01-06T14:11:58.000Z</time>
      </trkpt>
      <trkpt lat="48.70223" lon="1.72474">
        <ele>182</ele>
        <time>2013-01-06T14:12:07.000Z</time>
      </trkpt>
      <trkpt lat="48.7022" lon="1.72488">
        <ele>182</ele>
        <time>2013-01-06T14:12:13.000Z</time>
      </trkpt>
      <trkpt lat="48.70216" lon="1.72502">
        <ele>181.80000305176</ele>
        <time>2013-01-06T14:12:20.000Z</time>
      </trkpt>
      <trkpt lat="48.70214" lon="1.72519">
        <ele>181.60000610352</ele>
        <time>2013-01-06T14:12:27.000Z</time>
      </trkpt>
      <trkpt lat="48.70212" lon="1.72532">
        <ele>181.39999389648</ele>
        <time>2013-01-06T14:12:33.000Z</time>
      </trkpt>
      <trkpt lat="48.70208" lon="1.72549">
        <ele>181.19999694824</ele>
        <time>2013-01-06T14:12:41.000Z</time>
      </trkpt>
      <trkpt lat="48.70206" lon="1.72566">
        <ele>181</ele>
        <time>2013-01-06T14:12:47.000Z</time>
      </trkpt>
      <trkpt lat="48.70204" lon="1.72583">
        <ele>180.80000305176</ele>
        <time>2013-01-06T14:12:54.000Z</time>
      </trkpt>
      <trkpt lat="48.70201" lon="1.72594">
        <ele>180.60000610352</ele>
        <time>2013-01-06T14:13:00.000Z</time>
      </trkpt>
      <trkpt lat="48.70199" lon="1.72603">
        <ele>180.39999389648</ele>
        <time>2013-01-06T14:13:04.000Z</time>
      </trkpt>
      <trkpt lat="48.70198" lon="1.7261">
        <ele>180.39999389648</ele>
        <time>2013-01-06T14:13:08.000Z</time>
      </trkpt>
      <trkpt lat="48.70193" lon="1.72628">
        <ele>180</ele>
        <time>2013-01-06T14:13:16.000Z</time>
      </trkpt>
      <trkpt lat="48.7019" lon="1.72638">
        <ele>179.80000305176</ele>
        <time>2013-01-06T14:13:21.000Z</time>
      </trkpt>
      <trkpt lat="48.70187" lon="1.72651">
        <ele>179.60000610352</ele>
        <time>2013-01-06T14:13:27.000Z</time>
      </trkpt>
      <trkpt lat="48.70183" lon="1.72664">
        <ele>179.19999694824</ele>
        <time>2013-01-06T14:13:33.000Z</time>
      </trkpt>
      <trkpt lat="48.70178" lon="1.72684">
        <ele>178.80000305176</ele>
        <time>2013-01-06T14:13:42.000Z</time>
      </trkpt>
      <trkpt lat="48.70175" lon="1.72699">
        <ele>178.19999694824</ele>
        <time>2013-01-06T14:13:49.000Z</time>
      </trkpt>
      <trkpt lat="48.70169" lon="1.72719">
        <ele>177.39999389648</ele>
        <time>2013-01-06T14:13:58.000Z</time>
      </trkpt>
      <trkpt lat="48.70164" lon="1.72734">
        <ele>176.80000305176</ele>
        <time>2013-01-06T14:14:05.000Z</time>
      </trkpt>
      <trkpt lat="48.70157" lon="1.72751">
        <ele>176.39999389648</ele>
        <time>2013-01-06T14:14:13.000Z</time>
      </trkpt>
      <trkpt lat="48.70149" lon="1.72771">
        <ele>176.60000610352</ele>
        <time>2013-01-06T14:14:23.000Z</time>
      </trkpt>
      <trkpt lat="48.70145" lon="1.72783">
        <ele>176.60000610352</ele>
        <time>2013-01-06T14:14:29.000Z</time>
      </trkpt>
      <trkpt lat="48.7014" lon="1.72798">
        <ele>176.80000305176</ele>
        <time>2013-01-06T14:14:36.000Z</time>
      </trkpt>
      <trkpt lat="48.70135" lon="1.72814">
        <ele>176.80000305176</ele>
        <time>2013-01-06T14:14:43.000Z</time>
      </trkpt>
      <trkpt lat="48.7013" lon="1.72826">
        <ele>177</ele>
        <time>2013-01-06T14:14:49.000Z</time>
      </trkpt>
      <trkpt lat="48.70126" lon="1.72837">
        <ele>177.19999694824</ele>
        <time>2013-01-06T14:14:56.000Z</time>
      </trkpt>
      <trkpt lat="48.70122" lon="1.72847">
        <ele>177.39999389648</ele>
        <time>2013-01-06T14:15:01.000Z</time>
      </trkpt>
      <trkpt lat="48.70117" lon="1.72864">
        <ele>177.39999389648</ele>
        <time>2013-01-06T14:15:08.000Z</time>
      </trkpt>
      <trkpt lat="48.70114" lon="1.72879">
        <ele>177.39999389648</ele>
        <time>2013-01-06T14:15:15.000Z</time>
      </trkpt>
      <trkpt lat="48.70109" lon="1.72895">
        <ele>177.39999389648</ele>
        <time>2013-01-06T14:15:23.000Z</time>
      </trkpt>
      <trkpt lat="48.70102" lon="1.72919">
        <ele>177.60000610352</ele>
        <time>2013-01-06T14:15:34.000Z</time>
      </trkpt>
      <trkpt lat="48.70097" lon="1.72934">
        <ele>178.19999694824</ele>
        <time>2013-01-06T14:15:41.000Z</time>
      </trkpt>
      <trkpt lat="48.70091" lon="1.72947">
        <ele>178.80000305176</ele>
        <time>2013-01-06T14:15:48.000Z</time>
      </trkpt>
      <trkpt lat="48.70088" lon="1.72961">
        <ele>179.19999694824</ele>
        <time>2013-01-06T14:15:54.000Z</time>
      </trkpt>
      <trkpt lat="48.70083" lon="1.72975">
        <ele>179.60000610352</ele>
        <time>2013-01-06T14:16:01.000Z</time>
      </trkpt>
      <trkpt lat="48.70079" lon="1.72993">
        <ele>180.19999694824</ele>
        <time>2013-01-06T14:16:09.000Z</time>
      </trkpt>
      <trkpt lat="48.70073" lon="1.73008">
        <ele>181</ele>
        <time>2013-01-06T14:16:17.000Z</time>
      </trkpt>
      <trkpt lat="48.7007" lon="1.73022">
        <ele>181.60000610352</ele>
        <time>2013-01-06T14:16:23.000Z</time>
      </trkpt>
      <trkpt lat="48.70066" lon="1.73033">
        <ele>182</ele>
        <time>2013-01-06T14:16:28.000Z</time>
      </trkpt>
      <trkpt lat="48.70065" lon="1.73034">
        <ele>182.19999694824</ele>
        <time>2013-01-06T14:16:29.000Z</time>
      </trkpt>
      <trkpt lat="48.70063" lon="1.73039">
        <ele>182.39999389648</ele>
        <time>2013-01-06T14:16:32.000Z</time>
      </trkpt>
      <trkpt lat="48.70058" lon="1.73051">
        <ele>182.80000305176</ele>
        <time>2013-01-06T14:16:38.000Z</time>
      </trkpt>
      <trkpt lat="48.70055" lon="1.73063">
        <ele>183.19999694824</ele>
        <time>2013-01-06T14:16:44.000Z</time>
      </trkpt>
      <trkpt lat="48.70049" lon="1.73079">
        <ele>183.60000610352</ele>
        <time>2013-01-06T14:16:51.000Z</time>
      </trkpt>
      <trkpt lat="48.70043" lon="1.73099">
        <ele>183.39999389648</ele>
        <time>2013-01-06T14:16:59.000Z</time>
      </trkpt>
      <trkpt lat="48.70039" lon="1.73116">
        <ele>183</ele>
        <time>2013-01-06T14:17:06.000Z</time>
      </trkpt>
      <trkpt lat="48.70034" lon="1.73132">
        <ele>182.60000610352</ele>
        <time>2013-01-06T14:17:13.000Z</time>
      </trkpt>
      <trkpt lat="48.70029" lon="1.73147">
        <ele>182.19999694824</ele>
        <time>2013-01-06T14:17:20.000Z</time>
      </trkpt>
      <trkpt lat="48.70027" lon="1.73157">
        <ele>182</ele>
        <time>2013-01-06T14:17:24.000Z</time>
      </trkpt>
      <trkpt lat="48.7002" lon="1.73167">
        <ele>181.60000610352</ele>
        <time>2013-01-06T14:17:31.000Z</time>
      </trkpt>
      <trkpt lat="48.70014" lon="1.73178">
        <ele>181.19999694824</ele>
        <time>2013-01-06T14:17:37.000Z</time>
      </trkpt>
      <trkpt lat="48.70008" lon="1.7319">
        <ele>180.80000305176</ele>
        <time>2013-01-06T14:17:44.000Z</time>
      </trkpt>
      <trkpt lat="48.70001" lon="1.73202">
        <ele>180.19999694824</ele>
        <time>2013-01-06T14:17:51.000Z</time>
      </trkpt>
      <trkpt lat="48.69995" lon="1.73214">
        <ele>179.39999389648</ele>
        <time>2013-01-06T14:17:58.000Z</time>
      </trkpt>
      <trkpt lat="48.69991" lon="1.73223">
        <ele>178.80000305176</ele>
        <time>2013-01-06T14:18:03.000Z</time>
      </trkpt>
      <trkpt lat="48.69984" lon="1.73235">
        <ele>178</ele>
        <time>2013-01-06T14:18:10.000Z</time>
      </trkpt>
      <trkpt lat="48.69979" lon="1.73246">
        <ele>177.39999389648</ele>
        <time>2013-01-06T14:18:17.000Z</time>
      </trkpt>
      <trkpt lat="48.69977" lon="1.73251">
        <ele>177.19999694824</ele>
        <time>2013-01-06T14:18:20.000Z</time>
      </trkpt>
      <trkpt lat="48.69976" lon="1.73257">
        <ele>177.19999694824</ele>
        <time>2013-01-06T14:18:24.000Z</time>
      </trkpt>
      <trkpt lat="48.69969" lon="1.73271">
        <ele>177.19999694824</ele>
        <time>2013-01-06T14:18:32.000Z</time>
      </trkpt>
      <trkpt lat="48.69962" lon="1.73284">
        <ele>177.19999694824</ele>
        <time>2013-01-06T14:18:38.000Z</time>
      </trkpt>
      <trkpt lat="48.69957" lon="1.73293">
        <ele>177.19999694824</ele>
        <time>2013-01-06T14:18:43.000Z</time>
      </trkpt>
      <trkpt lat="48.69954" lon="1.73298">
        <ele>177.19999694824</ele>
        <time>2013-01-06T14:18:46.000Z</time>
      </trkpt>
      <trkpt lat="48.69948" lon="1.7331">
        <ele>177.19999694824</ele>
        <time>2013-01-06T14:18:52.000Z</time>
      </trkpt>
      <trkpt lat="48.69945" lon="1.73319">
        <ele>177.39999389648</ele>
        <time>2013-01-06T14:18:56.000Z</time>
      </trkpt>
      <trkpt lat="48.6994" lon="1.7333">
        <ele>177.39999389648</ele>
        <time>2013-01-06T14:19:02.000Z</time>
      </trkpt>
      <trkpt lat="48.69935" lon="1.73336">
        <ele>177.39999389648</ele>
        <time>2013-01-06T14:19:06.000Z</time>
      </trkpt>
      <trkpt lat="48.69932" lon="1.73342">
        <ele>177.39999389648</ele>
        <time>2013-01-06T14:19:09.000Z</time>
      </trkpt>
      <trkpt lat="48.69926" lon="1.73358">
        <ele>177.60000610352</ele>
        <time>2013-01-06T14:19:16.000Z</time>
      </trkpt>
      <trkpt lat="48.69921" lon="1.73367">
        <ele>177.80000305176</ele>
        <time>2013-01-06T14:19:21.000Z</time>
      </trkpt>
      <trkpt lat="48.69918" lon="1.7337">
        <ele>177.80000305176</ele>
        <time>2013-01-06T14:19:23.000Z</time>
      </trkpt>
      <trkpt lat="48.69916" lon="1.73379">
        <ele>178</ele>
        <time>2013-01-06T14:19:27.000Z</time>
      </trkpt>
      <trkpt lat="48.69908" lon="1.73391">
        <ele>178.39999389648</ele>
        <time>2013-01-06T14:19:34.000Z</time>
      </trkpt>
      <trkpt lat="48.69907" lon="1.73393">
        <ele>178.39999389648</ele>
        <time>2013-01-06T14:19:35.000Z</time>
      </trkpt>
      <trkpt lat="48.69902" lon="1.734">
        <ele>178.60000610352</ele>
        <time>2013-01-06T14:19:39.000Z</time>
      </trkpt>
      <trkpt lat="48.69898" lon="1.73414">
        <ele>178.80000305176</ele>
        <time>2013-01-06T14:19:45.000Z</time>
      </trkpt>
      <trkpt lat="48.69894" lon="1.73422">
        <ele>178.80000305176</ele>
        <time>2013-01-06T14:19:49.000Z</time>
      </trkpt>
      <trkpt lat="48.69891" lon="1.7343">
        <ele>178.60000610352</ele>
        <time>2013-01-06T14:19:54.000Z</time>
      </trkpt>
      <trkpt lat="48.6989" lon="1.73432">
        <ele>178.60000610352</ele>
        <time>2013-01-06T14:19:56.000Z</time>
      </trkpt>
      <trkpt lat="48.69886" lon="1.73447">
        <ele>178.19999694824</ele>
        <time>2013-01-06T14:20:03.000Z</time>
      </trkpt>
      <trkpt lat="48.69883" lon="1.73454">
        <ele>178</ele>
        <time>2013-01-06T14:20:07.000Z</time>
      </trkpt>
      <trkpt lat="48.69878" lon="1.73464">
        <ele>178</ele>
        <time>2013-01-06T14:20:14.000Z</time>
      </trkpt>
      <trkpt lat="48.69872" lon="1.73471">
        <ele>178</ele>
        <time>2013-01-06T14:20:20.000Z</time>
      </trkpt>
      <trkpt lat="48.69871" lon="1.73474">
        <ele>178</ele>
        <time>2013-01-06T14:20:24.000Z</time>
      </trkpt>
      <trkpt lat="48.69869" lon="1.7348">
        <ele>178</ele>
        <time>2013-01-06T14:20:30.000Z</time>
      </trkpt>
      <trkpt lat="48.69865" lon="1.73485">
        <ele>178</ele>
        <time>2013-01-06T14:20:32.000Z</time>
      </trkpt>
      <trkpt lat="48.69859" lon="1.73495">
        <ele>178</ele>
        <time>2013-01-06T14:20:39.000Z</time>
      </trkpt>
      <trkpt lat="48.69854" lon="1.73508">
        <ele>178.19999694824</ele>
        <time>2013-01-06T14:20:44.000Z</time>
      </trkpt>
      <trkpt lat="48.69847" lon="1.73517">
        <ele>178.39999389648</ele>
        <time>2013-01-06T14:20:50.000Z</time>
      </trkpt>
      <trkpt lat="48.69846" lon="1.73518">
        <ele>178.39999389648</ele>
        <time>2013-01-06T14:20:51.000Z</time>
      </trkpt>
      <trkpt lat="48.69842" lon="1.73527">
        <ele>178.60000610352</ele>
        <time>2013-01-06T14:20:58.000Z</time>
      </trkpt>
      <trkpt lat="48.69836" lon="1.73539">
        <ele>178.80000305176</ele>
        <time>2013-01-06T14:21:05.000Z</time>
      </trkpt>
      <trkpt lat="48.6983" lon="1.7355">
        <ele>179</ele>
        <time>2013-01-06T14:21:11.000Z</time>
      </trkpt>
      <trkpt lat="48.69822" lon="1.73564">
        <ele>179</ele>
        <time>2013-01-06T14:21:18.000Z</time>
      </trkpt>
      <trkpt lat="48.69815" lon="1.73581">
        <ele>179</ele>
        <time>2013-01-06T14:21:26.000Z</time>
      </trkpt>
      <trkpt lat="48.69809" lon="1.73593">
        <ele>179</ele>
        <time>2013-01-06T14:21:31.000Z</time>
      </trkpt>
      <trkpt lat="48.69801" lon="1.73608">
        <ele>179</ele>
        <time>2013-01-06T14:21:38.000Z</time>
      </trkpt>
      <trkpt lat="48.69794" lon="1.73623">
        <ele>179.19999694824</ele>
        <time>2013-01-06T14:21:45.000Z</time>
      </trkpt>
      <trkpt lat="48.69789" lon="1.73634">
        <ele>179.19999694824</ele>
        <time>2013-01-06T14:21:51.000Z</time>
      </trkpt>
      <trkpt lat="48.69785" lon="1.73643">
        <ele>179.39999389648</ele>
        <time>2013-01-06T14:21:56.000Z</time>
      </trkpt>
      <trkpt lat="48.69779" lon="1.73653">
        <ele>179.39999389648</ele>
        <time>2013-01-06T14:22:02.000Z</time>
      </trkpt>
      <trkpt lat="48.69778" lon="1.73654">
        <ele>179.39999389648</ele>
        <time>2013-01-06T14:22:03.000Z</time>
      </trkpt>
      <trkpt lat="48.69774" lon="1.73668">
        <ele>179.60000610352</ele>
        <time>2013-01-06T14:22:12.000Z</time>
      </trkpt>
      <trkpt lat="48.69773" lon="1.73671">
        <ele>179.60000610352</ele>
        <time>2013-01-06T14:22:14.000Z</time>
      </trkpt>
      <trkpt lat="48.69771" lon="1.73673">
        <ele>179.39999389648</ele>
        <time>2013-01-06T14:22:17.000Z</time>
      </trkpt>
      <trkpt lat="48.69764" lon="1.73686">
        <ele>179.19999694824</ele>
        <time>2013-01-06T14:22:26.000Z</time>
      </trkpt>
      <trkpt lat="48.69763" lon="1.7369">
        <ele>179</ele>
        <time>2013-01-06T14:22:28.000Z</time>
      </trkpt>
      <trkpt lat="48.69757" lon="1.73697">
        <ele>178.80000305176</ele>
        <time>2013-01-06T14:22:32.000Z</time>
      </trkpt>
      <trkpt lat="48.6975" lon="1.73708">
        <ele>178.39999389648</ele>
        <time>2013-01-06T14:22:40.000Z</time>
      </trkpt>
      <trkpt lat="48.69744" lon="1.73721">
        <ele>178</ele>
        <time>2013-01-06T14:22:48.000Z</time>
      </trkpt>
      <trkpt lat="48.69738" lon="1.73735">
        <ele>177.60000610352</ele>
        <time>2013-01-06T14:22:56.000Z</time>
      </trkpt>
      <trkpt lat="48.69732" lon="1.73747">
        <ele>177.39999389648</ele>
        <time>2013-01-06T14:23:02.000Z</time>
      </trkpt>
      <trkpt lat="48.69732" lon="1.73748">
        <ele>177.39999389648</ele>
        <time>2013-01-06T14:23:03.000Z</time>
      </trkpt>
      <trkpt lat="48.69725" lon="1.73762">
        <ele>177.19999694824</ele>
        <time>2013-01-06T14:23:11.000Z</time>
      </trkpt>
      <trkpt lat="48.69723" lon="1.73765">
        <ele>177.19999694824</ele>
        <time>2013-01-06T14:23:13.000Z</time>
      </trkpt>
      <trkpt lat="48.69716" lon="1.7378">
        <ele>177.19999694824</ele>
        <time>2013-01-06T14:23:22.000Z</time>
      </trkpt>
      <trkpt lat="48.69712" lon="1.73789">
        <ele>177.19999694824</ele>
        <time>2013-01-06T14:23:28.000Z</time>
      </trkpt>
      <trkpt lat="48.69706" lon="1.73796">
        <ele>177.19999694824</ele>
        <time>2013-01-06T14:23:32.000Z</time>
      </trkpt>
      <trkpt lat="48.69703" lon="1.73802">
        <ele>177.19999694824</ele>
        <time>2013-01-06T14:23:36.000Z</time>
      </trkpt>
      <trkpt lat="48.697" lon="1.73809">
        <ele>177.19999694824</ele>
        <time>2013-01-06T14:23:41.000Z</time>
      </trkpt>
      <trkpt lat="48.69695" lon="1.73819">
        <ele>177.19999694824</ele>
        <time>2013-01-06T14:23:47.000Z</time>
      </trkpt>
      <trkpt lat="48.69689" lon="1.73832">
        <ele>177.19999694824</ele>
        <time>2013-01-06T14:23:52.000Z</time>
      </trkpt>
      <trkpt lat="48.69682" lon="1.73844">
        <ele>177.19999694824</ele>
        <time>2013-01-06T14:23:59.000Z</time>
      </trkpt>
      <trkpt lat="48.69677" lon="1.73857">
        <ele>177</ele>
        <time>2013-01-06T14:24:06.000Z</time>
      </trkpt>
      <trkpt lat="48.69674" lon="1.73862">
        <ele>177</ele>
        <time>2013-01-06T14:24:10.000Z</time>
      </trkpt>
      <trkpt lat="48.69671" lon="1.7387">
        <ele>177</ele>
        <time>2013-01-06T14:24:15.000Z</time>
      </trkpt>
      <trkpt lat="48.69665" lon="1.73883">
        <ele>176.80000305176</ele>
        <time>2013-01-06T14:24:22.000Z</time>
      </trkpt>
      <trkpt lat="48.69661" lon="1.73894">
        <ele>176.80000305176</ele>
        <time>2013-01-06T14:24:29.000Z</time>
      </trkpt>
      <trkpt lat="48.69655" lon="1.73904">
        <ele>177</ele>
        <time>2013-01-06T14:24:35.000Z</time>
      </trkpt>
      <trkpt lat="48.69648" lon="1.73918">
        <ele>177.19999694824</ele>
        <time>2013-01-06T14:24:43.000Z</time>
      </trkpt>
      <trkpt lat="48.69645" lon="1.73924">
        <ele>177.19999694824</ele>
        <time>2013-01-06T14:24:46.000Z</time>
      </trkpt>
      <trkpt lat="48.69638" lon="1.73935">
        <ele>177.60000610352</ele>
        <time>2013-01-06T14:24:51.000Z</time>
      </trkpt>
      <trkpt lat="48.69637" lon="1.73937">
        <ele>177.60000610352</ele>
        <time>2013-01-06T14:24:52.000Z</time>
      </trkpt>
      <trkpt lat="48.69629" lon="1.7395">
        <ele>177.80000305176</ele>
        <time>2013-01-06T14:24:58.000Z</time>
      </trkpt>
      <trkpt lat="48.69625" lon="1.73961">
        <ele>177.80000305176</ele>
        <time>2013-01-06T14:25:03.000Z</time>
      </trkpt>
      <trkpt lat="48.6962" lon="1.73969">
        <ele>178</ele>
        <time>2013-01-06T14:25:09.000Z</time>
      </trkpt>
      <trkpt lat="48.69619" lon="1.73971">
        <ele>178</ele>
        <time>2013-01-06T14:25:10.000Z</time>
      </trkpt>
      <trkpt lat="48.69616" lon="1.73981">
        <ele>178</ele>
        <time>2013-01-06T14:25:17.000Z</time>
      </trkpt>
      <trkpt lat="48.69616" lon="1.73984">
        <ele>178</ele>
        <time>2013-01-06T14:25:19.000Z</time>
      </trkpt>
      <trkpt lat="48.69621" lon="1.73996">
        <ele>177.19999694824</ele>
        <time>2013-01-06T14:25:25.000Z</time>
      </trkpt>
      <trkpt lat="48.69624" lon="1.74007">
        <ele>176.80000305176</ele>
        <time>2013-01-06T14:25:30.000Z</time>
      </trkpt>
      <trkpt lat="48.69625" lon="1.74018">
        <ele>176.39999389648</ele>
        <time>2013-01-06T14:25:34.000Z</time>
      </trkpt>
      <trkpt lat="48.69625" lon="1.74029">
        <ele>176.19999694824</ele>
        <time>2013-01-06T14:25:39.000Z</time>
      </trkpt>
      <trkpt lat="48.69631" lon="1.74042">
        <ele>175.39999389648</ele>
        <time>2013-01-06T14:25:46.000Z</time>
      </trkpt>
      <trkpt lat="48.69632" lon="1.74048">
        <ele>175.19999694824</ele>
        <time>2013-01-06T14:25:49.000Z</time>
      </trkpt>
      <trkpt lat="48.69637" lon="1.7406">
        <ele>174.60000610352</ele>
        <time>2013-01-06T14:25:55.000Z</time>
      </trkpt>
      <trkpt lat="48.69644" lon="1.74076">
        <ele>173.60000610352</ele>
        <time>2013-01-06T14:26:02.000Z</time>
      </trkpt>
      <trkpt lat="48.69646" lon="1.74085">
        <ele>173.39999389648</ele>
        <time>2013-01-06T14:26:07.000Z</time>
      </trkpt>
      <trkpt lat="48.69649" lon="1.74102">
        <ele>173</ele>
        <time>2013-01-06T14:26:15.000Z</time>
      </trkpt>
      <trkpt lat="48.69653" lon="1.74119">
        <ele>172.39999389648</ele>
        <time>2013-01-06T14:26:22.000Z</time>
      </trkpt>
      <trkpt lat="48.69655" lon="1.74129">
        <ele>172.19999694824</ele>
        <time>2013-01-06T14:26:27.000Z</time>
      </trkpt>
      <trkpt lat="48.69659" lon="1.74142">
        <ele>171.80000305176</ele>
        <time>2013-01-06T14:26:34.000Z</time>
      </trkpt>
      <trkpt lat="48.6966" lon="1.74156">
        <ele>171.60000610352</ele>
        <time>2013-01-06T14:26:40.000Z</time>
      </trkpt>
      <trkpt lat="48.6966" lon="1.74167">
        <ele>171.39999389648</ele>
        <time>2013-01-06T14:26:44.000Z</time>
      </trkpt>
      <trkpt lat="48.69659" lon="1.7418">
        <ele>171.39999389648</ele>
        <time>2013-01-06T14:26:51.000Z</time>
      </trkpt>
      <trkpt lat="48.69665" lon="1.74187">
        <ele>171</ele>
        <time>2013-01-06T14:26:55.000Z</time>
      </trkpt>
      <trkpt lat="48.6967" lon="1.74193">
        <ele>170.80000305176</ele>
        <time>2013-01-06T14:26:59.000Z</time>
      </trkpt>
      <trkpt lat="48.69674" lon="1.74205">
        <ele>170.60000610352</ele>
        <time>2013-01-06T14:27:07.000Z</time>
      </trkpt>
      <trkpt lat="48.69675" lon="1.74207">
        <ele>170.60000610352</ele>
        <time>2013-01-06T14:27:08.000Z</time>
      </trkpt>
      <trkpt lat="48.69674" lon="1.74226">
        <ele>170.60000610352</ele>
        <time>2013-01-06T14:27:16.000Z</time>
      </trkpt>
      <trkpt lat="48.69678" lon="1.74239">
        <ele>170.60000610352</ele>
        <time>2013-01-06T14:27:22.000Z</time>
      </trkpt>
      <trkpt lat="48.69679" lon="1.74245">
        <ele>170.60000610352</ele>
        <time>2013-01-06T14:27:25.000Z</time>
      </trkpt>
      <trkpt lat="48.69684" lon="1.74251">
        <ele>170.39999389648</ele>
        <time>2013-01-06T14:27:28.000Z</time>
      </trkpt>
      <trkpt lat="48.69686" lon="1.74258">
        <ele>170.39999389648</ele>
        <time>2013-01-06T14:27:32.000Z</time>
      </trkpt>
      <trkpt lat="48.6969" lon="1.74276">
        <ele>170</ele>
        <time>2013-01-06T14:27:40.000Z</time>
      </trkpt>
      <trkpt lat="48.69694" lon="1.74289">
        <ele>169.60000610352</ele>
        <time>2013-01-06T14:27:46.000Z</time>
      </trkpt>
      <trkpt lat="48.69697" lon="1.74299">
        <ele>169.39999389648</ele>
        <time>2013-01-06T14:27:51.000Z</time>
      </trkpt>
      <trkpt lat="48.697" lon="1.74314">
        <ele>169</ele>
        <time>2013-01-06T14:27:58.000Z</time>
      </trkpt>
      <trkpt lat="48.69702" lon="1.74329">
        <ele>168.60000610352</ele>
        <time>2013-01-06T14:28:05.000Z</time>
      </trkpt>
      <trkpt lat="48.69705" lon="1.74345">
        <ele>168.19999694824</ele>
        <time>2013-01-06T14:28:12.000Z</time>
      </trkpt>
      <trkpt lat="48.69707" lon="1.74353">
        <ele>168</ele>
        <time>2013-01-06T14:28:16.000Z</time>
      </trkpt>
      <trkpt lat="48.69708" lon="1.74363">
        <ele>167.80000305176</ele>
        <time>2013-01-06T14:28:21.000Z</time>
      </trkpt>
      <trkpt lat="48.69713" lon="1.74382">
        <ele>167</ele>
        <time>2013-01-06T14:28:29.000Z</time>
      </trkpt>
      <trkpt lat="48.69714" lon="1.74386">
        <ele>167</ele>
        <time>2013-01-06T14:28:31.000Z</time>
      </trkpt>
      <trkpt lat="48.69718" lon="1.74396">
        <ele>166.60000610352</ele>
        <time>2013-01-06T14:28:37.000Z</time>
      </trkpt>
      <trkpt lat="48.69724" lon="1.74416">
        <ele>165.80000305176</ele>
        <time>2013-01-06T14:28:45.000Z</time>
      </trkpt>
      <trkpt lat="48.69728" lon="1.74431">
        <ele>165.19999694824</ele>
        <time>2013-01-06T14:28:49.000Z</time>
      </trkpt>
      <trkpt lat="48.69731" lon="1.74447">
        <ele>164.60000610352</ele>
        <time>2013-01-06T14:28:54.000Z</time>
      </trkpt>
      <trkpt lat="48.69735" lon="1.74466">
        <ele>164</ele>
        <time>2013-01-06T14:29:01.000Z</time>
      </trkpt>
      <trkpt lat="48.69736" lon="1.74482">
        <ele>163.60000610352</ele>
        <time>2013-01-06T14:29:05.000Z</time>
      </trkpt>
      <trkpt lat="48.69739" lon="1.74506">
        <ele>162.80000305176</ele>
        <time>2013-01-06T14:29:12.000Z</time>
      </trkpt>
      <trkpt lat="48.69741" lon="1.74516">
        <ele>162.60000610352</ele>
        <time>2013-01-06T14:29:16.000Z</time>
      </trkpt>
      <trkpt lat="48.69751" lon="1.74536">
        <ele>162</ele>
        <time>2013-01-06T14:29:24.000Z</time>
      </trkpt>
      <trkpt lat="48.69753" lon="1.74551">
        <ele>161.80000305176</ele>
        <time>2013-01-06T14:29:30.000Z</time>
      </trkpt>
      <trkpt lat="48.69753" lon="1.74553">
        <ele>161.60000610352</ele>
        <time>2013-01-06T14:29:31.000Z</time>
      </trkpt>
      <trkpt lat="48.69754" lon="1.74565">
        <ele>161.39999389648</ele>
        <time>2013-01-06T14:29:37.000Z</time>
      </trkpt>
      <trkpt lat="48.69759" lon="1.74582">
        <ele>161.19999694824</ele>
        <time>2013-01-06T14:29:45.000Z</time>
      </trkpt>
      <trkpt lat="48.69764" lon="1.74602">
        <ele>162</ele>
        <time>2013-01-06T14:29:53.000Z</time>
      </trkpt>
      <trkpt lat="48.69768" lon="1.74616">
        <ele>162.60000610352</ele>
        <time>2013-01-06T14:29:59.000Z</time>
      </trkpt>
      <trkpt lat="48.69774" lon="1.74634">
        <ele>163.60000610352</ele>
        <time>2013-01-06T14:30:08.000Z</time>
      </trkpt>
      <trkpt lat="48.69778" lon="1.74649">
        <ele>164.39999389648</ele>
        <time>2013-01-06T14:30:15.000Z</time>
      </trkpt>
      <trkpt lat="48.69782" lon="1.74664">
        <ele>165.39999389648</ele>
        <time>2013-01-06T14:30:22.000Z</time>
      </trkpt>
      <trkpt lat="48.69786" lon="1.74678">
        <ele>166</ele>
        <time>2013-01-06T14:30:28.000Z</time>
      </trkpt>
      <trkpt lat="48.69791" lon="1.74696">
        <ele>166.80000305176</ele>
        <time>2013-01-06T14:30:36.000Z</time>
      </trkpt>
      <trkpt lat="48.69793" lon="1.74711">
        <ele>167.60000610352</ele>
        <time>2013-01-06T14:30:44.000Z</time>
      </trkpt>
      <trkpt lat="48.69795" lon="1.74725">
        <ele>168.39999389648</ele>
        <time>2013-01-06T14:30:51.000Z</time>
      </trkpt>
      <trkpt lat="48.698" lon="1.7474">
        <ele>169.39999389648</ele>
        <time>2013-01-06T14:31:00.000Z</time>
      </trkpt>
      <trkpt lat="48.69803" lon="1.74753">
        <ele>170.19999694824</ele>
        <time>2013-01-06T14:31:07.000Z</time>
      </trkpt>
      <trkpt lat="48.69808" lon="1.74775">
        <ele>170.39999389648</ele>
        <time>2013-01-06T14:31:18.000Z</time>
      </trkpt>
      <trkpt lat="48.6981" lon="1.7479">
        <ele>170.19999694824</ele>
        <time>2013-01-06T14:31:26.000Z</time>
      </trkpt>
      <trkpt lat="48.69814" lon="1.74808">
        <ele>170</ele>
        <time>2013-01-06T14:31:35.000Z</time>
      </trkpt>
      <trkpt lat="48.69817" lon="1.74825">
        <ele>170</ele>
        <time>2013-01-06T14:31:43.000Z</time>
      </trkpt>
      <trkpt lat="48.69821" lon="1.74839">
        <ele>169.80000305176</ele>
        <time>2013-01-06T14:31:51.000Z</time>
      </trkpt>
      <trkpt lat="48.69824" lon="1.74851">
        <ele>169.39999389648</ele>
        <time>2013-01-06T14:31:57.000Z</time>
      </trkpt>
      <trkpt lat="48.69827" lon="1.74859">
        <ele>169.39999389648</ele>
        <time>2013-01-06T14:32:02.000Z</time>
      </trkpt>
      <trkpt lat="48.69827" lon="1.74861">
        <ele>169.19999694824</ele>
        <time>2013-01-06T14:32:03.000Z</time>
      </trkpt>
      <trkpt lat="48.69834" lon="1.74873">
        <ele>169</ele>
        <time>2013-01-06T14:32:10.000Z</time>
      </trkpt>
      <trkpt lat="48.69844" lon="1.7487">
        <ele>169.39999389648</ele>
        <time>2013-01-06T14:32:18.000Z</time>
      </trkpt>
      <trkpt lat="48.69854" lon="1.74862">
        <ele>169.80000305176</ele>
        <time>2013-01-06T14:32:26.000Z</time>
      </trkpt>
      <trkpt lat="48.69862" lon="1.74857">
        <ele>170</ele>
        <time>2013-01-06T14:32:32.000Z</time>
      </trkpt>
      <trkpt lat="48.69876" lon="1.7485">
        <ele>170.19999694824</ele>
        <time>2013-01-06T14:32:41.000Z</time>
      </trkpt>
      <trkpt lat="48.69888" lon="1.74847">
        <ele>170.19999694824</ele>
        <time>2013-01-06T14:32:49.000Z</time>
      </trkpt>
      <trkpt lat="48.69899" lon="1.74844">
        <ele>170.19999694824</ele>
        <time>2013-01-06T14:32:55.000Z</time>
      </trkpt>
      <trkpt lat="48.6991" lon="1.74839">
        <ele>170</ele>
        <time>2013-01-06T14:33:02.000Z</time>
      </trkpt>
      <trkpt lat="48.6992" lon="1.74834">
        <ele>170</ele>
        <time>2013-01-06T14:33:09.000Z</time>
      </trkpt>
      <trkpt lat="48.69922" lon="1.74833">
        <ele>170</ele>
        <time>2013-01-06T14:33:10.000Z</time>
      </trkpt>
      <trkpt lat="48.69932" lon="1.7483">
        <ele>170.19999694824</ele>
        <time>2013-01-06T14:33:16.000Z</time>
      </trkpt>
      <trkpt lat="48.69949" lon="1.74824">
        <ele>170.19999694824</ele>
        <time>2013-01-06T14:33:26.000Z</time>
      </trkpt>
      <trkpt lat="48.69964" lon="1.74816">
        <ele>170.19999694824</ele>
        <time>2013-01-06T14:33:35.000Z</time>
      </trkpt>
      <trkpt lat="48.69977" lon="1.7481">
        <ele>170.19999694824</ele>
        <time>2013-01-06T14:33:44.000Z</time>
      </trkpt>
      <trkpt lat="48.69992" lon="1.748">
        <ele>169.80000305176</ele>
        <time>2013-01-06T14:33:54.000Z</time>
      </trkpt>
      <trkpt lat="48.7" lon="1.74793">
        <ele>169.39999389648</ele>
        <time>2013-01-06T14:34:01.000Z</time>
      </trkpt>
      <trkpt lat="48.70002" lon="1.74792">
        <ele>169.60000610352</ele>
        <time>2013-01-06T14:34:03.000Z</time>
      </trkpt>
      <trkpt lat="48.70013" lon="1.74787">
        <ele>170</ele>
        <time>2013-01-06T14:34:09.000Z</time>
      </trkpt>
      <trkpt lat="48.70021" lon="1.74781">
        <ele>170.19999694824</ele>
        <time>2013-01-06T14:34:15.000Z</time>
      </trkpt>
      <trkpt lat="48.70031" lon="1.74776">
        <ele>170.80000305176</ele>
        <time>2013-01-06T14:34:23.000Z</time>
      </trkpt>
      <trkpt lat="48.70034" lon="1.74768">
        <ele>170.80000305176</ele>
        <time>2013-01-06T14:34:29.000Z</time>
      </trkpt>
      <trkpt lat="48.70033" lon="1.74767">
        <ele>170.60000610352</ele>
        <time>2013-01-06T14:34:33.000Z</time>
      </trkpt>
      <trkpt lat="48.70032" lon="1.74759">
        <ele>170.39999389648</ele>
        <time>2013-01-06T14:34:40.000Z</time>
      </trkpt>
      <trkpt lat="48.70032" lon="1.74757">
        <ele>170.39999389648</ele>
        <time>2013-01-06T14:34:42.000Z</time>
      </trkpt>
      <trkpt lat="48.70034" lon="1.74759">
        <ele>170.60000610352</ele>
        <time>2013-01-06T14:34:44.000Z</time>
      </trkpt>
      <trkpt lat="48.70042" lon="1.74771">
        <ele>171.39999389648</ele>
        <time>2013-01-06T14:34:51.000Z</time>
      </trkpt>
      <trkpt lat="48.70055" lon="1.74768">
        <ele>172</ele>
        <time>2013-01-06T14:34:57.000Z</time>
      </trkpt>
      <trkpt lat="48.70068" lon="1.74763">
        <ele>172.80000305176</ele>
        <time>2013-01-06T14:35:03.000Z</time>
      </trkpt>
      <trkpt lat="48.70078" lon="1.7476">
        <ele>173.60000610352</ele>
        <time>2013-01-06T14:35:08.000Z</time>
      </trkpt>
      <trkpt lat="48.70091" lon="1.74754">
        <ele>174.19999694824</ele>
        <time>2013-01-06T14:35:16.000Z</time>
      </trkpt>
      <trkpt lat="48.70097" lon="1.74751">
        <ele>174.39999389648</ele>
        <time>2013-01-06T14:35:21.000Z</time>
      </trkpt>
      <trkpt lat="48.70101" lon="1.74749">
        <ele>174.60000610352</ele>
        <time>2013-01-06T14:35:24.000Z</time>
      </trkpt>
      <trkpt lat="48.70108" lon="1.74746">
        <ele>174.60000610352</ele>
        <time>2013-01-06T14:35:30.000Z</time>
      </trkpt>
      <trkpt lat="48.70115" lon="1.74737">
        <ele>174.60000610352</ele>
        <time>2013-01-06T14:35:37.000Z</time>
      </trkpt>
      <trkpt lat="48.70116" lon="1.74735">
        <ele>174.80000305176</ele>
        <time>2013-01-06T14:35:38.000Z</time>
      </trkpt>
      <trkpt lat="48.70127" lon="1.74727">
        <ele>174.80000305176</ele>
        <time>2013-01-06T14:35:45.000Z</time>
      </trkpt>
      <trkpt lat="48.70134" lon="1.74723">
        <ele>174.80000305176</ele>
        <time>2013-01-06T14:35:51.000Z</time>
      </trkpt>
      <trkpt lat="48.70144" lon="1.74719">
        <ele>174.80000305176</ele>
        <time>2013-01-06T14:35:57.000Z</time>
      </trkpt>
      <trkpt lat="48.70154" lon="1.74713">
        <ele>174.80000305176</ele>
        <time>2013-01-06T14:36:04.000Z</time>
      </trkpt>
      <trkpt lat="48.70164" lon="1.74709">
        <ele>174.80000305176</ele>
        <time>2013-01-06T14:36:09.000Z</time>
      </trkpt>
      <trkpt lat="48.70171" lon="1.74707">
        <ele>174.60000610352</ele>
        <time>2013-01-06T14:36:15.000Z</time>
      </trkpt>
      <trkpt lat="48.70181" lon="1.74709">
        <ele>174</ele>
        <time>2013-01-06T14:36:22.000Z</time>
      </trkpt>
      <trkpt lat="48.70187" lon="1.74707">
        <ele>173.60000610352</ele>
        <time>2013-01-06T14:36:27.000Z</time>
      </trkpt>
      <trkpt lat="48.70199" lon="1.74702">
        <ele>172.39999389648</ele>
        <time>2013-01-06T14:36:36.000Z</time>
      </trkpt>
      <trkpt lat="48.7021" lon="1.74696">
        <ele>171.60000610352</ele>
        <time>2013-01-06T14:36:43.000Z</time>
      </trkpt>
      <trkpt lat="48.70223" lon="1.74689">
        <ele>170.39999389648</ele>
        <time>2013-01-06T14:36:52.000Z</time>
      </trkpt>
      <trkpt lat="48.70235" lon="1.74684">
        <ele>169.39999389648</ele>
        <time>2013-01-06T14:37:00.000Z</time>
      </trkpt>
      <trkpt lat="48.70248" lon="1.74679">
        <ele>168.39999389648</ele>
        <time>2013-01-06T14:37:08.000Z</time>
      </trkpt>
      <trkpt lat="48.70262" lon="1.74671">
        <ele>168.19999694824</ele>
        <time>2013-01-06T14:37:16.000Z</time>
      </trkpt>
      <trkpt lat="48.70278" lon="1.74661">
        <ele>168.39999389648</ele>
        <time>2013-01-06T14:37:25.000Z</time>
      </trkpt>
      <trkpt lat="48.70286" lon="1.74656">
        <ele>168.60000610352</ele>
        <time>2013-01-06T14:37:31.000Z</time>
      </trkpt>
      <trkpt lat="48.70287" lon="1.74655">
        <ele>168.60000610352</ele>
        <time>2013-01-06T14:37:32.000Z</time>
      </trkpt>
      <trkpt lat="48.70295" lon="1.74651">
        <ele>169</ele>
        <time>2013-01-06T14:37:39.000Z</time>
      </trkpt>
      <trkpt lat="48.70305" lon="1.74643">
        <ele>169.39999389648</ele>
        <time>2013-01-06T14:37:47.000Z</time>
      </trkpt>
      <trkpt lat="48.70306" lon="1.74639">
        <ele>169.60000610352</ele>
        <time>2013-01-06T14:37:49.000Z</time>
      </trkpt>
      <trkpt lat="48.70306" lon="1.7463">
        <ele>169.80000305176</ele>
        <time>2013-01-06T14:37:55.000Z</time>
      </trkpt>
      <trkpt lat="48.70306" lon="1.74633">
        <ele>169.80000305176</ele>
        <time>2013-01-06T14:37:57.000Z</time>
      </trkpt>
      <trkpt lat="48.70313" lon="1.74644">
        <ele>169.60000610352</ele>
        <time>2013-01-06T14:38:02.000Z</time>
      </trkpt>
      <trkpt lat="48.70325" lon="1.74639">
        <ele>170</ele>
        <time>2013-01-06T14:38:06.000Z</time>
      </trkpt>
      <trkpt lat="48.70328" lon="1.74637">
        <ele>170.19999694824</ele>
        <time>2013-01-06T14:38:07.000Z</time>
      </trkpt>
      <trkpt lat="48.70345" lon="1.74633">
        <ele>171.39999389648</ele>
        <time>2013-01-06T14:38:14.000Z</time>
      </trkpt>
      <trkpt lat="48.70357" lon="1.7463">
        <ele>172.60000610352</ele>
        <time>2013-01-06T14:38:20.000Z</time>
      </trkpt>
      <trkpt lat="48.70368" lon="1.74624">
        <ele>173.60000610352</ele>
        <time>2013-01-06T14:38:27.000Z</time>
      </trkpt>
      <trkpt lat="48.70375" lon="1.74622">
        <ele>174.19999694824</ele>
        <time>2013-01-06T14:38:32.000Z</time>
      </trkpt>
      <trkpt lat="48.70383" lon="1.74618">
        <ele>175</ele>
        <time>2013-01-06T14:38:37.000Z</time>
      </trkpt>
      <trkpt lat="48.70387" lon="1.74614">
        <ele>175.39999389648</ele>
        <time>2013-01-06T14:38:40.000Z</time>
      </trkpt>
      <trkpt lat="48.70399" lon="1.74607">
        <ele>176.39999389648</ele>
        <time>2013-01-06T14:38:48.000Z</time>
      </trkpt>
      <trkpt lat="48.70408" lon="1.74601">
        <ele>177</ele>
        <time>2013-01-06T14:38:56.000Z</time>
      </trkpt>
      <trkpt lat="48.7042" lon="1.74596">
        <ele>178</ele>
        <time>2013-01-06T14:39:05.000Z</time>
      </trkpt>
      <trkpt lat="48.70428" lon="1.74593">
        <ele>178.39999389648</ele>
        <time>2013-01-06T14:39:10.000Z</time>
      </trkpt>
      <trkpt lat="48.70434" lon="1.7459">
        <ele>178.60000610352</ele>
        <time>2013-01-06T14:39:14.000Z</time>
      </trkpt>
      <trkpt lat="48.70439" lon="1.74587">
        <ele>179</ele>
        <time>2013-01-06T14:39:17.000Z</time>
      </trkpt>
      <trkpt lat="48.70447" lon="1.74584">
        <ele>179.39999389648</ele>
        <time>2013-01-06T14:39:23.000Z</time>
      </trkpt>
      <trkpt lat="48.70459" lon="1.74583">
        <ele>180</ele>
        <time>2013-01-06T14:39:31.000Z</time>
      </trkpt>
      <trkpt lat="48.70465" lon="1.7458">
        <ele>180.19999694824</ele>
        <time>2013-01-06T14:39:37.000Z</time>
      </trkpt>
      <trkpt lat="48.70467" lon="1.74579">
        <ele>180.39999389648</ele>
        <time>2013-01-06T14:39:38.000Z</time>
      </trkpt>
      <trkpt lat="48.70474" lon="1.74574">
        <ele>180.60000610352</ele>
        <time>2013-01-06T14:39:43.000Z</time>
      </trkpt>
      <trkpt lat="48.7048" lon="1.74567">
        <ele>181</ele>
        <time>2013-01-06T14:39:49.000Z</time>
      </trkpt>
      <trkpt lat="48.70482" lon="1.74565">
        <ele>181</ele>
        <time>2013-01-06T14:39:52.000Z</time>
      </trkpt>
      <trkpt lat="48.70483" lon="1.74564">
        <ele>181</ele>
        <time>2013-01-06T14:39:53.000Z</time>
      </trkpt>
      <trkpt lat="48.70487" lon="1.74555">
        <ele>181.19999694824</ele>
        <time>2013-01-06T14:39:56.000Z</time>
      </trkpt>
      <trkpt lat="48.7049" lon="1.74547">
        <ele>181.39999389648</ele>
        <time>2013-01-06T14:40:00.000Z</time>
      </trkpt>
      <trkpt lat="48.7049" lon="1.74545">
        <ele>181.39999389648</ele>
        <time>2013-01-06T14:40:01.000Z</time>
      </trkpt>
      <trkpt lat="48.70491" lon="1.74545">
        <ele>181.39999389648</ele>
        <time>2013-01-06T14:40:04.000Z</time>
      </trkpt>
      <trkpt lat="48.70497" lon="1.74546">
        <ele>181.80000305176</ele>
        <time>2013-01-06T14:40:12.000Z</time>
      </trkpt>
      <trkpt lat="48.70504" lon="1.74552">
        <ele>182</ele>
        <time>2013-01-06T14:40:16.000Z</time>
      </trkpt>
      <trkpt lat="48.70507" lon="1.74553">
        <ele>182</ele>
        <time>2013-01-06T14:40:18.000Z</time>
      </trkpt>
      <trkpt lat="48.70514" lon="1.74554">
        <ele>182.19999694824</ele>
        <time>2013-01-06T14:40:22.000Z</time>
      </trkpt>
      <trkpt lat="48.70525" lon="1.7455">
        <ele>182.60000610352</ele>
        <time>2013-01-06T14:40:29.000Z</time>
      </trkpt>
      <trkpt lat="48.70527" lon="1.74548">
        <ele>182.60000610352</ele>
        <time>2013-01-06T14:40:30.000Z</time>
      </trkpt>
      <trkpt lat="48.70535" lon="1.7454">
        <ele>183</ele>
        <time>2013-01-06T14:40:35.000Z</time>
      </trkpt>
      <trkpt lat="48.70541" lon="1.74537">
        <ele>183.19999694824</ele>
        <time>2013-01-06T14:40:40.000Z</time>
      </trkpt>
      <trkpt lat="48.70546" lon="1.74536">
        <ele>183.39999389648</ele>
        <time>2013-01-06T14:40:43.000Z</time>
      </trkpt>
      <trkpt lat="48.7055" lon="1.74534">
        <ele>183.39999389648</ele>
        <time>2013-01-06T14:40:47.000Z</time>
      </trkpt>
      <trkpt lat="48.70558" lon="1.74531">
        <ele>183.80000305176</ele>
        <time>2013-01-06T14:40:53.000Z</time>
      </trkpt>
      <trkpt lat="48.70567" lon="1.74526">
        <ele>184</ele>
        <time>2013-01-06T14:40:59.000Z</time>
      </trkpt>
      <trkpt lat="48.70576" lon="1.74523">
        <ele>184.39999389648</ele>
        <time>2013-01-06T14:41:04.000Z</time>
      </trkpt>
      <trkpt lat="48.70585" lon="1.74517">
        <ele>184.60000610352</ele>
        <time>2013-01-06T14:41:10.000Z</time>
      </trkpt>
      <trkpt lat="48.70588" lon="1.74516">
        <ele>184.39999389648</ele>
        <time>2013-01-06T14:41:12.000Z</time>
      </trkpt>
      <trkpt lat="48.70597" lon="1.74512">
        <ele>184</ele>
        <time>2013-01-06T14:41:18.000Z</time>
      </trkpt>
      <trkpt lat="48.70603" lon="1.74509">
        <ele>183.60000610352</ele>
        <time>2013-01-06T14:41:23.000Z</time>
      </trkpt>
      <trkpt lat="48.70608" lon="1.74507">
        <ele>183.39999389648</ele>
        <time>2013-01-06T14:41:29.000Z</time>
      </trkpt>
      <trkpt lat="48.70612" lon="1.74505">
        <ele>183.19999694824</ele>
        <time>2013-01-06T14:41:32.000Z</time>
      </trkpt>
      <trkpt lat="48.70627" lon="1.74498">
        <ele>182.19999694824</ele>
        <time>2013-01-06T14:41:41.000Z</time>
      </trkpt>
      <trkpt lat="48.70638" lon="1.74494">
        <ele>181.60000610352</ele>
        <time>2013-01-06T14:41:48.000Z</time>
      </trkpt>
      <trkpt lat="48.70647" lon="1.74491">
        <ele>181.19999694824</ele>
        <time>2013-01-06T14:41:53.000Z</time>
      </trkpt>
      <trkpt lat="48.70654" lon="1.74485">
        <ele>180.80000305176</ele>
        <time>2013-01-06T14:41:57.000Z</time>
      </trkpt>
      <trkpt lat="48.70666" lon="1.74481">
        <ele>180.19999694824</ele>
        <time>2013-01-06T14:42:04.000Z</time>
      </trkpt>
      <trkpt lat="48.70676" lon="1.74477">
        <ele>179.80000305176</ele>
        <time>2013-01-06T14:42:10.000Z</time>
      </trkpt>
      <trkpt lat="48.70683" lon="1.74473">
        <ele>179.60000610352</ele>
        <time>2013-01-06T14:42:15.000Z</time>
      </trkpt>
      <trkpt lat="48.70699" lon="1.74466">
        <ele>179.19999694824</ele>
        <time>2013-01-06T14:42:24.000Z</time>
      </trkpt>
      <trkpt lat="48.70702" lon="1.74465">
        <ele>179</ele>
        <time>2013-01-06T14:42:26.000Z</time>
      </trkpt>
      <trkpt lat="48.70709" lon="1.74463">
        <ele>178.80000305176</ele>
        <time>2013-01-06T14:42:30.000Z</time>
      </trkpt>
      <trkpt lat="48.70729" lon="1.74467">
        <ele>178</ele>
        <time>2013-01-06T14:42:42.000Z</time>
      </trkpt>
      <trkpt lat="48.70741" lon="1.74482">
        <ele>177.39999389648</ele>
        <time>2013-01-06T14:42:52.000Z</time>
      </trkpt>
      <trkpt lat="48.7075" lon="1.74493">
        <ele>177</ele>
        <time>2013-01-06T14:43:00.000Z</time>
      </trkpt>
      <trkpt lat="48.7076" lon="1.74504">
        <ele>176.80000305176</ele>
        <time>2013-01-06T14:43:09.000Z</time>
      </trkpt>
      <trkpt lat="48.70765" lon="1.74511">
        <ele>176.80000305176</ele>
        <time>2013-01-06T14:43:13.000Z</time>
      </trkpt>
      <trkpt lat="48.70774" lon="1.74521">
        <ele>176.60000610352</ele>
        <time>2013-01-06T14:43:20.000Z</time>
      </trkpt>
      <trkpt lat="48.70781" lon="1.74531">
        <ele>176.60000610352</ele>
        <time>2013-01-06T14:43:27.000Z</time>
      </trkpt>
      <trkpt lat="48.70787" lon="1.74539">
        <ele>176.39999389648</ele>
        <time>2013-01-06T14:43:33.000Z</time>
      </trkpt>
      <trkpt lat="48.70794" lon="1.7455">
        <ele>176.39999389648</ele>
        <time>2013-01-06T14:43:40.000Z</time>
      </trkpt>
      <trkpt lat="48.70806" lon="1.74563">
        <ele>176.19999694824</ele>
        <time>2013-01-06T14:43:50.000Z</time>
      </trkpt>
      <trkpt lat="48.70812" lon="1.7457">
        <ele>176.19999694824</ele>
        <time>2013-01-06T14:43:55.000Z</time>
      </trkpt>
      <trkpt lat="48.7082" lon="1.74582">
        <ele>176</ele>
        <time>2013-01-06T14:44:02.000Z</time>
      </trkpt>
      <trkpt lat="48.70829" lon="1.74594">
        <ele>176</ele>
        <time>2013-01-06T14:44:11.000Z</time>
      </trkpt>
      <trkpt lat="48.70839" lon="1.74608">
        <ele>175.80000305176</ele>
        <time>2013-01-06T14:44:21.000Z</time>
      </trkpt>
      <trkpt lat="48.70851" lon="1.74624">
        <ele>175.80000305176</ele>
        <time>2013-01-06T14:44:32.000Z</time>
      </trkpt>
      <trkpt lat="48.7086" lon="1.74634">
        <ele>175.80000305176</ele>
        <time>2013-01-06T14:44:40.000Z</time>
      </trkpt>
      <trkpt lat="48.70869" lon="1.74646">
        <ele>175.80000305176</ele>
        <time>2013-01-06T14:44:48.000Z</time>
      </trkpt>
      <trkpt lat="48.70879" lon="1.74657">
        <ele>175.80000305176</ele>
        <time>2013-01-06T14:44:56.000Z</time>
      </trkpt>
      <trkpt lat="48.70887" lon="1.74669">
        <ele>176</ele>
        <time>2013-01-06T14:45:04.000Z</time>
      </trkpt>
      <trkpt lat="48.70893" lon="1.74678">
        <ele>176.19999694824</ele>
        <time>2013-01-06T14:45:10.000Z</time>
      </trkpt>
      <trkpt lat="48.70901" lon="1.7469">
        <ele>176.60000610352</ele>
        <time>2013-01-06T14:45:18.000Z</time>
      </trkpt>
      <trkpt lat="48.7091" lon="1.74703">
        <ele>176.80000305176</ele>
        <time>2013-01-06T14:45:27.000Z</time>
      </trkpt>
      <trkpt lat="48.70921" lon="1.74717">
        <ele>177.19999694824</ele>
        <time>2013-01-06T14:45:37.000Z</time>
      </trkpt>
      <trkpt lat="48.70931" lon="1.74732">
        <ele>177.60000610352</ele>
        <time>2013-01-06T14:45:47.000Z</time>
      </trkpt>
      <trkpt lat="48.70939" lon="1.7474">
        <ele>177.80000305176</ele>
        <time>2013-01-06T14:45:53.000Z</time>
      </trkpt>
      <trkpt lat="48.7095" lon="1.74754">
        <ele>178</ele>
        <time>2013-01-06T14:46:02.000Z</time>
      </trkpt>
      <trkpt lat="48.70957" lon="1.74764">
        <ele>178</ele>
        <time>2013-01-06T14:46:08.000Z</time>
      </trkpt>
      <trkpt lat="48.70964" lon="1.74773">
        <ele>178</ele>
        <time>2013-01-06T14:46:14.000Z</time>
      </trkpt>
      <trkpt lat="48.7097" lon="1.74784">
        <ele>178.19999694824</ele>
        <time>2013-01-06T14:46:21.000Z</time>
      </trkpt>
      <trkpt lat="48.70976" lon="1.74794">
        <ele>178.19999694824</ele>
        <time>2013-01-06T14:46:27.000Z</time>
      </trkpt>
      <trkpt lat="48.70983" lon="1.74804">
        <ele>178.39999389648</ele>
        <time>2013-01-06T14:46:33.000Z</time>
      </trkpt>
      <trkpt lat="48.70993" lon="1.74817">
        <ele>178.60000610352</ele>
        <time>2013-01-06T14:46:42.000Z</time>
      </trkpt>
      <trkpt lat="48.71003" lon="1.74829">
        <ele>178.60000610352</ele>
        <time>2013-01-06T14:46:50.000Z</time>
      </trkpt>
      <trkpt lat="48.71012" lon="1.74837">
        <ele>178.19999694824</ele>
        <time>2013-01-06T14:46:58.000Z</time>
      </trkpt>
      <trkpt lat="48.71013" lon="1.74838">
        <ele>178.19999694824</ele>
        <time>2013-01-06T14:47:01.000Z</time>
      </trkpt>
      <trkpt lat="48.70786" lon="1.75275">
        <ele>173.39999389648</ele>
        <time>2013-01-06T14:52:24.000Z</time>
      </trkpt>
      <trkpt lat="48.70783" lon="1.75284">
        <ele>173.19999694824</ele>
        <time>2013-01-06T14:52:29.000Z</time>
      </trkpt>
      <trkpt lat="48.70781" lon="1.7529">
        <ele>173.19999694824</ele>
        <time>2013-01-06T14:52:32.000Z</time>
      </trkpt>
      <trkpt lat="48.70779" lon="1.75298">
        <ele>173.19999694824</ele>
        <time>2013-01-06T14:52:36.000Z</time>
      </trkpt>
      <trkpt lat="48.70777" lon="1.75302">
        <ele>173.19999694824</ele>
        <time>2013-01-06T14:52:38.000Z</time>
      </trkpt>
      <trkpt lat="48.70773" lon="1.75312">
        <ele>173.19999694824</ele>
        <time>2013-01-06T14:52:44.000Z</time>
      </trkpt>
      <trkpt lat="48.70773" lon="1.75313">
        <ele>173.19999694824</ele>
        <time>2013-01-06T14:52:45.000Z</time>
      </trkpt>
      <trkpt lat="48.70769" lon="1.75324">
        <ele>173.19999694824</ele>
        <time>2013-01-06T14:52:51.000Z</time>
      </trkpt>
      <trkpt lat="48.70764" lon="1.75336">
        <ele>173</ele>
        <time>2013-01-06T14:52:58.000Z</time>
      </trkpt>
      <trkpt lat="48.70757" lon="1.75352">
        <ele>172.80000305176</ele>
        <time>2013-01-06T14:53:07.000Z</time>
      </trkpt>
      <trkpt lat="48.70753" lon="1.75362">
        <ele>172.60000610352</ele>
        <time>2013-01-06T14:53:13.000Z</time>
      </trkpt>
      <trkpt lat="48.7075" lon="1.75371">
        <ele>172.39999389648</ele>
        <time>2013-01-06T14:53:18.000Z</time>
      </trkpt>
      <trkpt lat="48.70743" lon="1.75387">
        <ele>172.19999694824</ele>
        <time>2013-01-06T14:53:27.000Z</time>
      </trkpt>
      <trkpt lat="48.70739" lon="1.75396">
        <ele>172</ele>
        <time>2013-01-06T14:53:32.000Z</time>
      </trkpt>
      <trkpt lat="48.70736" lon="1.75407">
        <ele>171.80000305176</ele>
        <time>2013-01-06T14:53:39.000Z</time>
      </trkpt>
      <trkpt lat="48.70728" lon="1.75425">
        <ele>171.60000610352</ele>
        <time>2013-01-06T14:53:49.000Z</time>
      </trkpt>
      <trkpt lat="48.70724" lon="1.75436">
        <ele>171.60000610352</ele>
        <time>2013-01-06T14:53:56.000Z</time>
      </trkpt>
      <trkpt lat="48.70724" lon="1.75438">
        <ele>171.60000610352</ele>
        <time>2013-01-06T14:53:57.000Z</time>
      </trkpt>
      <trkpt lat="48.70719" lon="1.7545">
        <ele>171.60000610352</ele>
        <time>2013-01-06T14:54:05.000Z</time>
      </trkpt>
      <trkpt lat="48.70716" lon="1.75452">
        <ele>171.60000610352</ele>
        <time>2013-01-06T14:54:10.000Z</time>
      </trkpt>
      <trkpt lat="48.70714" lon="1.75456">
        <ele>171.60000610352</ele>
        <time>2013-01-06T14:54:14.000Z</time>
      </trkpt>
      <trkpt lat="48.7071" lon="1.75461">
        <ele>171.60000610352</ele>
        <time>2013-01-06T14:54:17.000Z</time>
      </trkpt>
      <trkpt lat="48.70706" lon="1.75468">
        <ele>171.80000305176</ele>
        <time>2013-01-06T14:54:22.000Z</time>
      </trkpt>
      <trkpt lat="48.70705" lon="1.7547">
        <ele>171.80000305176</ele>
        <time>2013-01-06T14:54:24.000Z</time>
      </trkpt>
      <trkpt lat="48.70702" lon="1.75479">
        <ele>171.80000305176</ele>
        <time>2013-01-06T14:54:29.000Z</time>
      </trkpt>
      <trkpt lat="48.70697" lon="1.75482">
        <ele>172</ele>
        <time>2013-01-06T14:54:34.000Z</time>
      </trkpt>
      <trkpt lat="48.70697" lon="1.75481">
        <ele>172</ele>
        <time>2013-01-06T14:54:36.000Z</time>
      </trkpt>
      <trkpt lat="48.707" lon="1.75484">
        <ele>172</ele>
        <time>2013-01-06T14:55:14.000Z</time>
      </trkpt>
      <trkpt lat="48.70699" lon="1.75488">
        <ele>172</ele>
        <time>2013-01-06T14:55:16.000Z</time>
      </trkpt>
      <trkpt lat="48.70699" lon="1.75487">
        <ele>172</ele>
        <time>2013-01-06T14:55:17.000Z</time>
      </trkpt>
      <trkpt lat="48.70695" lon="1.75493">
        <ele>172.19999694824</ele>
        <time>2013-01-06T14:56:35.000Z</time>
      </trkpt>
      <trkpt lat="48.70693" lon="1.75491">
        <ele>172.19999694824</ele>
        <time>2013-01-06T14:56:37.000Z</time>
      </trkpt>
      <trkpt lat="48.70693" lon="1.75488">
        <ele>172.19999694824</ele>
        <time>2013-01-06T14:56:42.000Z</time>
      </trkpt>
      <trkpt lat="48.70694" lon="1.75485">
        <ele>172</ele>
        <time>2013-01-06T14:56:46.000Z</time>
      </trkpt>
      <trkpt lat="48.70697" lon="1.75485">
        <ele>172</ele>
        <time>2013-01-06T14:56:50.000Z</time>
      </trkpt>
      <trkpt lat="48.70697" lon="1.75485">
        <ele>172</ele>
        <time>2013-01-06T14:56:51.000Z</time>
      </trkpt>
      <trkpt lat="48.70694" lon="1.75471">
        <ele>171.80000305176</ele>
        <time>2013-01-06T14:57:12.000Z</time>
      </trkpt>
      <trkpt lat="48.70691" lon="1.75466">
        <ele>171.80000305176</ele>
        <time>2013-01-06T14:57:15.000Z</time>
      </trkpt>
      <trkpt lat="48.70686" lon="1.75459">
        <ele>171.80000305176</ele>
        <time>2013-01-06T14:57:21.000Z</time>
      </trkpt>
      <trkpt lat="48.70679" lon="1.7545">
        <ele>171.60000610352</ele>
        <time>2013-01-06T14:57:28.000Z</time>
      </trkpt>
      <trkpt lat="48.70678" lon="1.75449">
        <ele>171.60000610352</ele>
        <time>2013-01-06T14:57:29.000Z</time>
      </trkpt>
      <trkpt lat="48.70677" lon="1.75447">
        <ele>171.60000610352</ele>
        <time>2013-01-06T14:57:31.000Z</time>
      </trkpt>
      <trkpt lat="48.70673" lon="1.75442">
        <ele>171.60000610352</ele>
        <time>2013-01-06T14:57:37.000Z</time>
      </trkpt>
      <trkpt lat="48.70671" lon="1.7544">
        <ele>171.39999389648</ele>
        <time>2013-01-06T14:57:39.000Z</time>
      </trkpt>
      <trkpt lat="48.70666" lon="1.75435">
        <ele>171.39999389648</ele>
        <time>2013-01-06T14:57:44.000Z</time>
      </trkpt>
      <trkpt lat="48.70662" lon="1.75434">
        <ele>171.39999389648</ele>
        <time>2013-01-06T14:57:48.000Z</time>
      </trkpt>
      <trkpt lat="48.70658" lon="1.75435">
        <ele>171.39999389648</ele>
        <time>2013-01-06T14:57:51.000Z</time>
      </trkpt>
      <trkpt lat="48.70658" lon="1.75435">
        <ele>171.39999389648</ele>
        <time>2013-01-06T14:57:53.000Z</time>
      </trkpt>
      <trkpt lat="48.70654" lon="1.75435">
        <ele>171.39999389648</ele>
        <time>2013-01-06T15:01:04.000Z</time>
      </trkpt>
      <trkpt lat="48.70657" lon="1.75436">
        <ele>171.39999389648</ele>
        <time>2013-01-06T15:01:07.000Z</time>
      </trkpt>
      <trkpt lat="48.70658" lon="1.75443">
        <ele>171.60000610352</ele>
        <time>2013-01-06T15:01:12.000Z</time>
      </trkpt>
      <trkpt lat="48.70658" lon="1.75443">
        <ele>171.60000610352</ele>
        <time>2013-01-06T15:01:15.000Z</time>
      </trkpt>
      <trkpt lat="48.70655" lon="1.75441">
        <ele>171.60000610352</ele>
        <time>2013-01-06T15:01:36.000Z</time>
      </trkpt>
      <trkpt lat="48.70654" lon="1.75441">
        <ele>171.60000610352</ele>
        <time>2013-01-06T15:01:37.000Z</time>
      </trkpt>
    </trkseg>
  </trk>
</gpx>